<?xml version="1.0" encoding="UTF-8" standalone="no" ?>
<gpx xmlns="http://www.topografix.com/GPX/1/1" xmlns:xsi="http://www.w3.org/2001/XMLSchema-instance" xsi:schemaLocation="http://www.topografix.com/GPX/1/1 http://www.topografix.com/GPX/1/1/gpx.xsd" version="1.1" creator="VisuGPX - https://www.visugpx.com">
  <metadata>
    <name>20160522 dimanche l'aprèm, Buoux-Sivergues</name>
    <desc><![CDATA[L'aprèm en voiture vers Buoux , destination le château de l'environnement. Départ à pied vers Aiguebrun, descente dans le fond du ravin, remontée à Sivergues puis au Château de l'environnement. ---
]]></desc>
  </metadata>
  <trk>
    <name><![CDATA[20160522-144551-184242-X-MNT]]></name>
    <trkseg>
      <trkpt lat="43.83552" lon="5.37168">
        <ele>453</ele>
        <time>2016-05-22T12:45:51Z</time>
      </trkpt>
      <trkpt lat="43.83557" lon="5.37182">
        <ele>454</ele>
        <time>2016-05-22T12:46:06Z</time>
      </trkpt>
      <trkpt lat="43.83562" lon="5.37188">
        <ele>454</ele>
        <time>2016-05-22T12:46:18Z</time>
      </trkpt>
      <trkpt lat="43.83574" lon="5.37186">
        <ele>452</ele>
        <time>2016-05-22T12:46:32Z</time>
      </trkpt>
      <trkpt lat="43.83576" lon="5.37185">
        <ele>452</ele>
        <time>2016-05-22T12:46:35Z</time>
      </trkpt>
      <trkpt lat="43.83578" lon="5.37183">
        <ele>451</ele>
        <time>2016-05-22T12:46:37Z</time>
      </trkpt>
      <trkpt lat="43.83579" lon="5.37182">
        <ele>451</ele>
        <time>2016-05-22T12:46:38Z</time>
      </trkpt>
      <trkpt lat="43.83587" lon="5.37177">
        <ele>449</ele>
        <time>2016-05-22T12:46:50Z</time>
      </trkpt>
      <trkpt lat="43.83589" lon="5.37174">
        <ele>449</ele>
        <time>2016-05-22T12:46:53Z</time>
      </trkpt>
      <trkpt lat="43.83595" lon="5.37161">
        <ele>447</ele>
        <time>2016-05-22T12:47:07Z</time>
      </trkpt>
      <trkpt lat="43.83597" lon="5.37158">
        <ele>446</ele>
        <time>2016-05-22T12:47:11Z</time>
      </trkpt>
      <trkpt lat="43.83607" lon="5.37148">
        <ele>444</ele>
        <time>2016-05-22T12:47:26Z</time>
      </trkpt>
      <trkpt lat="43.83615" lon="5.3714">
        <ele>443</ele>
        <time>2016-05-22T12:47:35Z</time>
      </trkpt>
      <trkpt lat="43.83626" lon="5.37143">
        <ele>442</ele>
        <time>2016-05-22T12:47:47Z</time>
      </trkpt>
      <trkpt lat="43.83627" lon="5.37143">
        <ele>442</ele>
        <time>2016-05-22T12:47:48Z</time>
      </trkpt>
      <trkpt lat="43.83635" lon="5.37141">
        <ele>441</ele>
        <time>2016-05-22T12:48:00Z</time>
      </trkpt>
      <trkpt lat="43.83638" lon="5.37134">
        <ele>440</ele>
        <time>2016-05-22T12:48:14Z</time>
      </trkpt>
      <trkpt lat="43.83643" lon="5.37128">
        <ele>439</ele>
        <time>2016-05-22T12:48:27Z</time>
      </trkpt>
      <trkpt lat="43.83644" lon="5.37122">
        <ele>439</ele>
        <time>2016-05-22T12:48:41Z</time>
      </trkpt>
      <trkpt lat="43.83644" lon="5.37119">
        <ele>438</ele>
        <time>2016-05-22T12:48:55Z</time>
      </trkpt>
      <trkpt lat="43.83643" lon="5.37119">
        <ele>438</ele>
        <time>2016-05-22T12:49:05Z</time>
      </trkpt>
      <trkpt lat="43.83642" lon="5.37121">
        <ele>438</ele>
        <time>2016-05-22T12:49:19Z</time>
      </trkpt>
      <trkpt lat="43.8364" lon="5.37126">
        <ele>439</ele>
        <time>2016-05-22T12:49:30Z</time>
      </trkpt>
      <trkpt lat="43.83641" lon="5.37139">
        <ele>441</ele>
        <time>2016-05-22T12:49:43Z</time>
      </trkpt>
      <trkpt lat="43.83643" lon="5.37154">
        <ele>442</ele>
        <time>2016-05-22T12:49:59Z</time>
      </trkpt>
      <trkpt lat="43.83651" lon="5.37168">
        <ele>443</ele>
        <time>2016-05-22T12:50:13Z</time>
      </trkpt>
      <trkpt lat="43.83664" lon="5.37178">
        <ele>443</ele>
        <time>2016-05-22T12:50:26Z</time>
      </trkpt>
      <trkpt lat="43.83676" lon="5.37188">
        <ele>443</ele>
        <time>2016-05-22T12:50:39Z</time>
      </trkpt>
      <trkpt lat="43.83677" lon="5.3719">
        <ele>443</ele>
        <time>2016-05-22T12:50:40Z</time>
      </trkpt>
      <trkpt lat="43.83689" lon="5.37201">
        <ele>443</ele>
        <time>2016-05-22T12:50:56Z</time>
      </trkpt>
      <trkpt lat="43.83696" lon="5.37211">
        <ele>443</ele>
        <time>2016-05-22T12:51:09Z</time>
      </trkpt>
      <trkpt lat="43.83708" lon="5.37226">
        <ele>444</ele>
        <time>2016-05-22T12:51:23Z</time>
      </trkpt>
      <trkpt lat="43.8372" lon="5.37239">
        <ele>444</ele>
        <time>2016-05-22T12:51:38Z</time>
      </trkpt>
      <trkpt lat="43.8373" lon="5.37253">
        <ele>444</ele>
        <time>2016-05-22T12:51:53Z</time>
      </trkpt>
      <trkpt lat="43.83741" lon="5.37261">
        <ele>444</ele>
        <time>2016-05-22T12:52:09Z</time>
      </trkpt>
      <trkpt lat="43.8375" lon="5.37268">
        <ele>445</ele>
        <time>2016-05-22T12:52:23Z</time>
      </trkpt>
      <trkpt lat="43.83757" lon="5.37277">
        <ele>445</ele>
        <time>2016-05-22T12:52:35Z</time>
      </trkpt>
      <trkpt lat="43.83757" lon="5.37283">
        <ele>446</ele>
        <time>2016-05-22T12:52:38Z</time>
      </trkpt>
      <trkpt lat="43.83756" lon="5.37287">
        <ele>446</ele>
        <time>2016-05-22T12:52:41Z</time>
      </trkpt>
      <trkpt lat="43.83754" lon="5.37291">
        <ele>446</ele>
        <time>2016-05-22T12:52:44Z</time>
      </trkpt>
      <trkpt lat="43.83754" lon="5.37292">
        <ele>447</ele>
        <time>2016-05-22T12:52:45Z</time>
      </trkpt>
      <trkpt lat="43.83752" lon="5.37299">
        <ele>447</ele>
        <time>2016-05-22T12:52:50Z</time>
      </trkpt>
      <trkpt lat="43.83748" lon="5.37304">
        <ele>448</ele>
        <time>2016-05-22T12:52:56Z</time>
      </trkpt>
      <trkpt lat="43.83746" lon="5.37305">
        <ele>448</ele>
        <time>2016-05-22T12:52:58Z</time>
      </trkpt>
      <trkpt lat="43.83739" lon="5.37309">
        <ele>449</ele>
        <time>2016-05-22T12:53:06Z</time>
      </trkpt>
      <trkpt lat="43.83731" lon="5.37312">
        <ele>450</ele>
        <time>2016-05-22T12:53:14Z</time>
      </trkpt>
      <trkpt lat="43.83729" lon="5.37319">
        <ele>451</ele>
        <time>2016-05-22T12:53:20Z</time>
      </trkpt>
      <trkpt lat="43.83729" lon="5.37326">
        <ele>452</ele>
        <time>2016-05-22T12:53:25Z</time>
      </trkpt>
      <trkpt lat="43.83729" lon="5.37327">
        <ele>452</ele>
        <time>2016-05-22T12:53:26Z</time>
      </trkpt>
      <trkpt lat="43.8373" lon="5.37328">
        <ele>453</ele>
        <time>2016-05-22T12:53:27Z</time>
      </trkpt>
      <trkpt lat="43.83734" lon="5.37336">
        <ele>453</ele>
        <time>2016-05-22T12:53:33Z</time>
      </trkpt>
      <trkpt lat="43.83738" lon="5.37342">
        <ele>454</ele>
        <time>2016-05-22T12:53:39Z</time>
      </trkpt>
      <trkpt lat="43.8374" lon="5.37345">
        <ele>454</ele>
        <time>2016-05-22T12:53:42Z</time>
      </trkpt>
      <trkpt lat="43.83741" lon="5.37347">
        <ele>455</ele>
        <time>2016-05-22T12:53:44Z</time>
      </trkpt>
      <trkpt lat="43.8375" lon="5.3736">
        <ele>456</ele>
        <time>2016-05-22T12:53:57Z</time>
      </trkpt>
      <trkpt lat="43.83751" lon="5.37361">
        <ele>456</ele>
        <time>2016-05-22T12:53:58Z</time>
      </trkpt>
      <trkpt lat="43.83752" lon="5.37362">
        <ele>456</ele>
        <time>2016-05-22T12:53:59Z</time>
      </trkpt>
      <trkpt lat="43.83752" lon="5.37364">
        <ele>456</ele>
        <time>2016-05-22T12:54:00Z</time>
      </trkpt>
      <trkpt lat="43.83753" lon="5.37365">
        <ele>457</ele>
        <time>2016-05-22T12:54:01Z</time>
      </trkpt>
      <trkpt lat="43.83765" lon="5.37381">
        <ele>458</ele>
        <time>2016-05-22T12:54:18Z</time>
      </trkpt>
      <trkpt lat="43.83775" lon="5.3739">
        <ele>458</ele>
        <time>2016-05-22T12:54:31Z</time>
      </trkpt>
      <trkpt lat="43.83776" lon="5.3739">
        <ele>458</ele>
        <time>2016-05-22T12:54:32Z</time>
      </trkpt>
      <trkpt lat="43.83777" lon="5.3739">
        <ele>458</ele>
        <time>2016-05-22T12:54:33Z</time>
      </trkpt>
      <trkpt lat="43.8379" lon="5.37399">
        <ele>457</ele>
        <time>2016-05-22T12:54:49Z</time>
      </trkpt>
      <trkpt lat="43.83798" lon="5.37412">
        <ele>457</ele>
        <time>2016-05-22T12:55:03Z</time>
      </trkpt>
      <trkpt lat="43.83799" lon="5.37414">
        <ele>458</ele>
        <time>2016-05-22T12:55:05Z</time>
      </trkpt>
      <trkpt lat="43.83808" lon="5.37428">
        <ele>458</ele>
        <time>2016-05-22T12:55:20Z</time>
      </trkpt>
      <trkpt lat="43.83811" lon="5.37437">
        <ele>459</ele>
        <time>2016-05-22T12:55:27Z</time>
      </trkpt>
      <trkpt lat="43.83817" lon="5.37451">
        <ele>460</ele>
        <time>2016-05-22T12:55:40Z</time>
      </trkpt>
      <trkpt lat="43.83823" lon="5.37467">
        <ele>462</ele>
        <time>2016-05-22T12:55:54Z</time>
      </trkpt>
      <trkpt lat="43.8383" lon="5.37485">
        <ele>463</ele>
        <time>2016-05-22T12:56:11Z</time>
      </trkpt>
      <trkpt lat="43.83837" lon="5.37503">
        <ele>463</ele>
        <time>2016-05-22T12:56:27Z</time>
      </trkpt>
      <trkpt lat="43.83843" lon="5.37521">
        <ele>464</ele>
        <time>2016-05-22T12:56:43Z</time>
      </trkpt>
      <trkpt lat="43.83844" lon="5.37523">
        <ele>464</ele>
        <time>2016-05-22T12:56:45Z</time>
      </trkpt>
      <trkpt lat="43.83846" lon="5.37531">
        <ele>465</ele>
        <time>2016-05-22T12:56:56Z</time>
      </trkpt>
      <trkpt lat="43.83851" lon="5.37544">
        <ele>465</ele>
        <time>2016-05-22T12:57:10Z</time>
      </trkpt>
      <trkpt lat="43.83857" lon="5.3756">
        <ele>466</ele>
        <time>2016-05-22T12:57:26Z</time>
      </trkpt>
      <trkpt lat="43.83864" lon="5.37575">
        <ele>467</ele>
        <time>2016-05-22T12:57:40Z</time>
      </trkpt>
      <trkpt lat="43.83868" lon="5.37591">
        <ele>469</ele>
        <time>2016-05-22T12:57:55Z</time>
      </trkpt>
      <trkpt lat="43.83871" lon="5.37608">
        <ele>471</ele>
        <time>2016-05-22T12:58:10Z</time>
      </trkpt>
      <trkpt lat="43.83873" lon="5.37624">
        <ele>473</ele>
        <time>2016-05-22T12:58:26Z</time>
      </trkpt>
      <trkpt lat="43.83876" lon="5.3764">
        <ele>475</ele>
        <time>2016-05-22T12:58:41Z</time>
      </trkpt>
      <trkpt lat="43.83879" lon="5.37657">
        <ele>477</ele>
        <time>2016-05-22T12:58:56Z</time>
      </trkpt>
      <trkpt lat="43.83882" lon="5.37672">
        <ele>478</ele>
        <time>2016-05-22T12:59:12Z</time>
      </trkpt>
      <trkpt lat="43.83885" lon="5.37688">
        <ele>480</ele>
        <time>2016-05-22T12:59:27Z</time>
      </trkpt>
      <trkpt lat="43.8389" lon="5.37706">
        <ele>481</ele>
        <time>2016-05-22T12:59:43Z</time>
      </trkpt>
      <trkpt lat="43.83894" lon="5.37715">
        <ele>481</ele>
        <time>2016-05-22T12:59:51Z</time>
      </trkpt>
      <trkpt lat="43.83903" lon="5.37734">
        <ele>482</ele>
        <time>2016-05-22T13:00:05Z</time>
      </trkpt>
      <trkpt lat="43.8391" lon="5.37755">
        <ele>483</ele>
        <time>2016-05-22T13:00:21Z</time>
      </trkpt>
      <trkpt lat="43.83919" lon="5.37774">
        <ele>483</ele>
        <time>2016-05-22T13:00:37Z</time>
      </trkpt>
      <trkpt lat="43.83924" lon="5.37787">
        <ele>483</ele>
        <time>2016-05-22T13:00:49Z</time>
      </trkpt>
      <trkpt lat="43.83922" lon="5.37803">
        <ele>485</ele>
        <time>2016-05-22T13:01:04Z</time>
      </trkpt>
      <trkpt lat="43.83912" lon="5.37805">
        <ele>488</ele>
        <time>2016-05-22T13:01:18Z</time>
      </trkpt>
      <trkpt lat="43.83906" lon="5.37796">
        <ele>489</ele>
        <time>2016-05-22T13:01:29Z</time>
      </trkpt>
      <trkpt lat="43.83898" lon="5.37787">
        <ele>490</ele>
        <time>2016-05-22T13:01:42Z</time>
      </trkpt>
      <trkpt lat="43.83895" lon="5.37793">
        <ele>492</ele>
        <time>2016-05-22T13:01:54Z</time>
      </trkpt>
      <trkpt lat="43.83896" lon="5.37796">
        <ele>492</ele>
        <time>2016-05-22T13:01:57Z</time>
      </trkpt>
      <trkpt lat="43.83901" lon="5.37813">
        <ele>493</ele>
        <time>2016-05-22T13:02:11Z</time>
      </trkpt>
      <trkpt lat="43.83904" lon="5.3782">
        <ele>492</ele>
        <time>2016-05-22T13:02:16Z</time>
      </trkpt>
      <trkpt lat="43.83907" lon="5.37823">
        <ele>492</ele>
        <time>2016-05-22T13:02:19Z</time>
      </trkpt>
      <trkpt lat="43.83913" lon="5.37839">
        <ele>493</ele>
        <time>2016-05-22T13:02:32Z</time>
      </trkpt>
      <trkpt lat="43.83918" lon="5.37853">
        <ele>493</ele>
        <time>2016-05-22T13:02:43Z</time>
      </trkpt>
      <trkpt lat="43.83927" lon="5.37874">
        <ele>494</ele>
        <time>2016-05-22T13:03:00Z</time>
      </trkpt>
      <trkpt lat="43.83933" lon="5.37893">
        <ele>496</ele>
        <time>2016-05-22T13:03:16Z</time>
      </trkpt>
      <trkpt lat="43.83934" lon="5.37907">
        <ele>499</ele>
        <time>2016-05-22T13:03:29Z</time>
      </trkpt>
      <trkpt lat="43.83934" lon="5.37914">
        <ele>500</ele>
        <time>2016-05-22T13:03:35Z</time>
      </trkpt>
      <trkpt lat="43.83934" lon="5.37932">
        <ele>504</ele>
        <time>2016-05-22T13:03:49Z</time>
      </trkpt>
      <trkpt lat="43.83938" lon="5.37949">
        <ele>506</ele>
        <time>2016-05-22T13:04:03Z</time>
      </trkpt>
      <trkpt lat="43.83942" lon="5.37962">
        <ele>508</ele>
        <time>2016-05-22T13:04:13Z</time>
      </trkpt>
      <trkpt lat="43.8395" lon="5.3798">
        <ele>509</ele>
        <time>2016-05-22T13:04:29Z</time>
      </trkpt>
      <trkpt lat="43.83962" lon="5.37995">
        <ele>509</ele>
        <time>2016-05-22T13:04:43Z</time>
      </trkpt>
      <trkpt lat="43.83974" lon="5.38015">
        <ele>510</ele>
        <time>2016-05-22T13:05:00Z</time>
      </trkpt>
      <trkpt lat="43.83977" lon="5.3802">
        <ele>509</ele>
        <time>2016-05-22T13:05:05Z</time>
      </trkpt>
      <trkpt lat="43.83982" lon="5.38032">
        <ele>510</ele>
        <time>2016-05-22T13:05:18Z</time>
      </trkpt>
      <trkpt lat="43.83994" lon="5.38049">
        <ele>512</ele>
        <time>2016-05-22T13:05:33Z</time>
      </trkpt>
      <trkpt lat="43.84004" lon="5.38068">
        <ele>513</ele>
        <time>2016-05-22T13:05:49Z</time>
      </trkpt>
      <trkpt lat="43.84008" lon="5.38073">
        <ele>513</ele>
        <time>2016-05-22T13:05:54Z</time>
      </trkpt>
      <trkpt lat="43.84016" lon="5.38091">
        <ele>514</ele>
        <time>2016-05-22T13:06:10Z</time>
      </trkpt>
      <trkpt lat="43.84023" lon="5.38109">
        <ele>515</ele>
        <time>2016-05-22T13:06:26Z</time>
      </trkpt>
      <trkpt lat="43.84028" lon="5.38127">
        <ele>517</ele>
        <time>2016-05-22T13:06:43Z</time>
      </trkpt>
      <trkpt lat="43.8403" lon="5.38139">
        <ele>519</ele>
        <time>2016-05-22T13:06:56Z</time>
      </trkpt>
      <trkpt lat="43.84035" lon="5.38151">
        <ele>520</ele>
        <time>2016-05-22T13:07:11Z</time>
      </trkpt>
      <trkpt lat="43.84039" lon="5.38163">
        <ele>522</ele>
        <time>2016-05-22T13:07:25Z</time>
      </trkpt>
      <trkpt lat="43.84042" lon="5.38166">
        <ele>522</ele>
        <time>2016-05-22T13:07:29Z</time>
      </trkpt>
      <trkpt lat="43.84051" lon="5.38179">
        <ele>524</ele>
        <time>2016-05-22T13:07:43Z</time>
      </trkpt>
      <trkpt lat="43.84061" lon="5.38186">
        <ele>524</ele>
        <time>2016-05-22T13:07:57Z</time>
      </trkpt>
      <trkpt lat="43.84074" lon="5.38177">
        <ele>525</ele>
        <time>2016-05-22T13:08:11Z</time>
      </trkpt>
      <trkpt lat="43.84086" lon="5.38165">
        <ele>526</ele>
        <time>2016-05-22T13:08:27Z</time>
      </trkpt>
      <trkpt lat="43.84087" lon="5.38161">
        <ele>526</ele>
        <time>2016-05-22T13:08:30Z</time>
      </trkpt>
      <trkpt lat="43.84093" lon="5.38156">
        <ele>527</ele>
        <time>2016-05-22T13:08:44Z</time>
      </trkpt>
      <trkpt lat="43.84093" lon="5.38163">
        <ele>528</ele>
        <time>2016-05-22T13:08:54Z</time>
      </trkpt>
      <trkpt lat="43.84088" lon="5.38176">
        <ele>528</ele>
        <time>2016-05-22T13:09:07Z</time>
      </trkpt>
      <trkpt lat="43.84084" lon="5.38195">
        <ele>529</ele>
        <time>2016-05-22T13:09:22Z</time>
      </trkpt>
      <trkpt lat="43.84082" lon="5.38199">
        <ele>529</ele>
        <time>2016-05-22T13:09:25Z</time>
      </trkpt>
      <trkpt lat="43.84081" lon="5.38205">
        <ele>529</ele>
        <time>2016-05-22T13:09:30Z</time>
      </trkpt>
      <trkpt lat="43.84067" lon="5.38214">
        <ele>528</ele>
        <time>2016-05-22T13:09:48Z</time>
      </trkpt>
      <trkpt lat="43.84062" lon="5.38214">
        <ele>528</ele>
        <time>2016-05-22T13:09:53Z</time>
      </trkpt>
      <trkpt lat="43.84044" lon="5.38211">
        <ele>529</ele>
        <time>2016-05-22T13:10:10Z</time>
      </trkpt>
      <trkpt lat="43.84038" lon="5.38208">
        <ele>529</ele>
        <time>2016-05-22T13:10:18Z</time>
      </trkpt>
      <trkpt lat="43.84024" lon="5.38201">
        <ele>529</ele>
        <time>2016-05-22T13:10:34Z</time>
      </trkpt>
      <trkpt lat="43.84019" lon="5.38198">
        <ele>529</ele>
        <time>2016-05-22T13:10:39Z</time>
      </trkpt>
      <trkpt lat="43.84011" lon="5.38197">
        <ele>530</ele>
        <time>2016-05-22T13:10:46Z</time>
      </trkpt>
      <trkpt lat="43.84008" lon="5.38199">
        <ele>530</ele>
        <time>2016-05-22T13:10:49Z</time>
      </trkpt>
      <trkpt lat="43.84011" lon="5.38219">
        <ele>531</ele>
        <time>2016-05-22T13:11:04Z</time>
      </trkpt>
      <trkpt lat="43.84012" lon="5.3823">
        <ele>532</ele>
        <time>2016-05-22T13:11:14Z</time>
      </trkpt>
      <trkpt lat="43.84017" lon="5.38248">
        <ele>533</ele>
        <time>2016-05-22T13:11:28Z</time>
      </trkpt>
      <trkpt lat="43.84019" lon="5.38266">
        <ele>534</ele>
        <time>2016-05-22T13:11:43Z</time>
      </trkpt>
      <trkpt lat="43.8402" lon="5.38286">
        <ele>534</ele>
        <time>2016-05-22T13:11:59Z</time>
      </trkpt>
      <trkpt lat="43.84022" lon="5.38305">
        <ele>535</ele>
        <time>2016-05-22T13:12:14Z</time>
      </trkpt>
      <trkpt lat="43.84023" lon="5.38312">
        <ele>535</ele>
        <time>2016-05-22T13:12:21Z</time>
      </trkpt>
      <trkpt lat="43.84025" lon="5.38327">
        <ele>535</ele>
        <time>2016-05-22T13:12:35Z</time>
      </trkpt>
      <trkpt lat="43.84025" lon="5.38341">
        <ele>535</ele>
        <time>2016-05-22T13:12:47Z</time>
      </trkpt>
      <trkpt lat="43.84026" lon="5.38345">
        <ele>535</ele>
        <time>2016-05-22T13:12:51Z</time>
      </trkpt>
      <trkpt lat="43.84026" lon="5.3836">
        <ele>535</ele>
        <time>2016-05-22T13:13:03Z</time>
      </trkpt>
      <trkpt lat="43.84027" lon="5.38374">
        <ele>535</ele>
        <time>2016-05-22T13:13:16Z</time>
      </trkpt>
      <trkpt lat="43.8403" lon="5.38391">
        <ele>535</ele>
        <time>2016-05-22T13:13:30Z</time>
      </trkpt>
      <trkpt lat="43.84034" lon="5.38394">
        <ele>535</ele>
        <time>2016-05-22T13:13:35Z</time>
      </trkpt>
      <trkpt lat="43.84034" lon="5.38403">
        <ele>535</ele>
        <time>2016-05-22T13:13:42Z</time>
      </trkpt>
      <trkpt lat="43.84033" lon="5.38411">
        <ele>535</ele>
        <time>2016-05-22T13:13:49Z</time>
      </trkpt>
      <trkpt lat="43.84033" lon="5.3843">
        <ele>535</ele>
        <time>2016-05-22T13:14:03Z</time>
      </trkpt>
      <trkpt lat="43.84037" lon="5.38443">
        <ele>534</ele>
        <time>2016-05-22T13:14:15Z</time>
      </trkpt>
      <trkpt lat="43.84035" lon="5.38455">
        <ele>535</ele>
        <time>2016-05-22T13:14:29Z</time>
      </trkpt>
      <trkpt lat="43.84035" lon="5.38456">
        <ele>535</ele>
        <time>2016-05-22T13:14:30Z</time>
      </trkpt>
      <trkpt lat="43.84035" lon="5.38465">
        <ele>535</ele>
        <time>2016-05-22T13:14:39Z</time>
      </trkpt>
      <trkpt lat="43.84049" lon="5.38476">
        <ele>535</ele>
        <time>2016-05-22T13:14:53Z</time>
      </trkpt>
      <trkpt lat="43.84065" lon="5.38484">
        <ele>534</ele>
        <time>2016-05-22T13:15:07Z</time>
      </trkpt>
      <trkpt lat="43.84073" lon="5.38487">
        <ele>534</ele>
        <time>2016-05-22T13:15:14Z</time>
      </trkpt>
      <trkpt lat="43.84092" lon="5.38494">
        <ele>534</ele>
        <time>2016-05-22T13:15:30Z</time>
      </trkpt>
      <trkpt lat="43.84112" lon="5.38494">
        <ele>534</ele>
        <time>2016-05-22T13:15:46Z</time>
      </trkpt>
      <trkpt lat="43.84132" lon="5.38487">
        <ele>534</ele>
        <time>2016-05-22T13:16:00Z</time>
      </trkpt>
      <trkpt lat="43.84147" lon="5.3848">
        <ele>534</ele>
        <time>2016-05-22T13:16:12Z</time>
      </trkpt>
      <trkpt lat="43.84149" lon="5.38479">
        <ele>534</ele>
        <time>2016-05-22T13:16:13Z</time>
      </trkpt>
      <trkpt lat="43.84155" lon="5.38477">
        <ele>534</ele>
        <time>2016-05-22T13:16:18Z</time>
      </trkpt>
      <trkpt lat="43.84175" lon="5.38477">
        <ele>535</ele>
        <time>2016-05-22T13:16:35Z</time>
      </trkpt>
      <trkpt lat="43.84193" lon="5.38488">
        <ele>535</ele>
        <time>2016-05-22T13:16:52Z</time>
      </trkpt>
      <trkpt lat="43.84208" lon="5.38499">
        <ele>535</ele>
        <time>2016-05-22T13:17:07Z</time>
      </trkpt>
      <trkpt lat="43.84229" lon="5.38509">
        <ele>536</ele>
        <time>2016-05-22T13:17:23Z</time>
      </trkpt>
      <trkpt lat="43.84232" lon="5.38513">
        <ele>536</ele>
        <time>2016-05-22T13:17:27Z</time>
      </trkpt>
      <trkpt lat="43.84245" lon="5.38526">
        <ele>536</ele>
        <time>2016-05-22T13:17:41Z</time>
      </trkpt>
      <trkpt lat="43.84253" lon="5.38535">
        <ele>536</ele>
        <time>2016-05-22T13:17:48Z</time>
      </trkpt>
      <trkpt lat="43.84261" lon="5.38543">
        <ele>537</ele>
        <time>2016-05-22T13:17:56Z</time>
      </trkpt>
      <trkpt lat="43.84265" lon="5.38546">
        <ele>537</ele>
        <time>2016-05-22T13:17:59Z</time>
      </trkpt>
      <trkpt lat="43.84269" lon="5.38551">
        <ele>537</ele>
        <time>2016-05-22T13:18:03Z</time>
      </trkpt>
      <trkpt lat="43.84273" lon="5.38556">
        <ele>537</ele>
        <time>2016-05-22T13:18:08Z</time>
      </trkpt>
      <trkpt lat="43.84282" lon="5.38566">
        <ele>537</ele>
        <time>2016-05-22T13:18:19Z</time>
      </trkpt>
      <trkpt lat="43.84302" lon="5.38584">
        <ele>536</ele>
        <time>2016-05-22T13:18:37Z</time>
      </trkpt>
      <trkpt lat="43.84315" lon="5.38595">
        <ele>536</ele>
        <time>2016-05-22T13:18:49Z</time>
      </trkpt>
      <trkpt lat="43.84326" lon="5.38603">
        <ele>536</ele>
        <time>2016-05-22T13:18:59Z</time>
      </trkpt>
      <trkpt lat="43.84335" lon="5.3861">
        <ele>535</ele>
        <time>2016-05-22T13:19:07Z</time>
      </trkpt>
      <trkpt lat="43.84338" lon="5.38614">
        <ele>535</ele>
        <time>2016-05-22T13:19:11Z</time>
      </trkpt>
      <trkpt lat="43.84353" lon="5.38626">
        <ele>534</ele>
        <time>2016-05-22T13:19:26Z</time>
      </trkpt>
      <trkpt lat="43.84355" lon="5.38632">
        <ele>534</ele>
        <time>2016-05-22T13:19:40Z</time>
      </trkpt>
      <trkpt lat="43.84355" lon="5.38632">
        <ele>534</ele>
        <time>2016-05-22T13:19:55Z</time>
      </trkpt>
      <trkpt lat="43.84356" lon="5.38631">
        <ele>534</ele>
        <time>2016-05-22T13:20:25Z</time>
      </trkpt>
      <trkpt lat="43.84356" lon="5.38632">
        <ele>534</ele>
        <time>2016-05-22T13:20:46Z</time>
      </trkpt>
      <trkpt lat="43.84358" lon="5.38637">
        <ele>534</ele>
        <time>2016-05-22T13:20:59Z</time>
      </trkpt>
      <trkpt lat="43.8436" lon="5.3864">
        <ele>534</ele>
        <time>2016-05-22T13:21:02Z</time>
      </trkpt>
      <trkpt lat="43.84365" lon="5.38659">
        <ele>534</ele>
        <time>2016-05-22T13:21:18Z</time>
      </trkpt>
      <trkpt lat="43.84365" lon="5.38661">
        <ele>534</ele>
        <time>2016-05-22T13:21:20Z</time>
      </trkpt>
      <trkpt lat="43.84366" lon="5.38673">
        <ele>534</ele>
        <time>2016-05-22T13:21:29Z</time>
      </trkpt>
      <trkpt lat="43.8437" lon="5.38686">
        <ele>535</ele>
        <time>2016-05-22T13:21:39Z</time>
      </trkpt>
      <trkpt lat="43.84374" lon="5.3871">
        <ele>535</ele>
        <time>2016-05-22T13:21:56Z</time>
      </trkpt>
      <trkpt lat="43.84375" lon="5.38715">
        <ele>536</ele>
        <time>2016-05-22T13:21:59Z</time>
      </trkpt>
      <trkpt lat="43.84376" lon="5.38718">
        <ele>536</ele>
        <time>2016-05-22T13:22:02Z</time>
      </trkpt>
      <trkpt lat="43.84381" lon="5.38742">
        <ele>536</ele>
        <time>2016-05-22T13:22:19Z</time>
      </trkpt>
      <trkpt lat="43.84383" lon="5.3875">
        <ele>536</ele>
        <time>2016-05-22T13:22:25Z</time>
      </trkpt>
      <trkpt lat="43.84388" lon="5.38774">
        <ele>536</ele>
        <time>2016-05-22T13:22:42Z</time>
      </trkpt>
      <trkpt lat="43.8439" lon="5.38776">
        <ele>536</ele>
        <time>2016-05-22T13:22:44Z</time>
      </trkpt>
      <trkpt lat="43.84393" lon="5.38786">
        <ele>536</ele>
        <time>2016-05-22T13:22:53Z</time>
      </trkpt>
      <trkpt lat="43.84397" lon="5.38811">
        <ele>537</ele>
        <time>2016-05-22T13:23:10Z</time>
      </trkpt>
      <trkpt lat="43.84401" lon="5.38831">
        <ele>538</ele>
        <time>2016-05-22T13:23:25Z</time>
      </trkpt>
      <trkpt lat="43.84405" lon="5.38851">
        <ele>538</ele>
        <time>2016-05-22T13:23:41Z</time>
      </trkpt>
      <trkpt lat="43.84408" lon="5.38867">
        <ele>539</ele>
        <time>2016-05-22T13:23:53Z</time>
      </trkpt>
      <trkpt lat="43.84413" lon="5.3889">
        <ele>540</ele>
        <time>2016-05-22T13:24:10Z</time>
      </trkpt>
      <trkpt lat="43.84417" lon="5.38915">
        <ele>541</ele>
        <time>2016-05-22T13:24:28Z</time>
      </trkpt>
      <trkpt lat="43.84418" lon="5.38937">
        <ele>541</ele>
        <time>2016-05-22T13:24:44Z</time>
      </trkpt>
      <trkpt lat="43.84423" lon="5.38958">
        <ele>542</ele>
        <time>2016-05-22T13:24:59Z</time>
      </trkpt>
      <trkpt lat="43.84428" lon="5.38971">
        <ele>542</ele>
        <time>2016-05-22T13:25:09Z</time>
      </trkpt>
      <trkpt lat="43.84428" lon="5.38973">
        <ele>542</ele>
        <time>2016-05-22T13:25:10Z</time>
      </trkpt>
      <trkpt lat="43.84434" lon="5.39">
        <ele>542</ele>
        <time>2016-05-22T13:25:30Z</time>
      </trkpt>
      <trkpt lat="43.84437" lon="5.39014">
        <ele>542</ele>
        <time>2016-05-22T13:25:42Z</time>
      </trkpt>
      <trkpt lat="43.8444" lon="5.39029">
        <ele>542</ele>
        <time>2016-05-22T13:25:54Z</time>
      </trkpt>
      <trkpt lat="43.84442" lon="5.39036">
        <ele>543</ele>
        <time>2016-05-22T13:25:58Z</time>
      </trkpt>
      <trkpt lat="43.84447" lon="5.39057">
        <ele>542</ele>
        <time>2016-05-22T13:26:15Z</time>
      </trkpt>
      <trkpt lat="43.84453" lon="5.39079">
        <ele>542</ele>
        <time>2016-05-22T13:26:32Z</time>
      </trkpt>
      <trkpt lat="43.84458" lon="5.39102">
        <ele>542</ele>
        <time>2016-05-22T13:26:49Z</time>
      </trkpt>
      <trkpt lat="43.84462" lon="5.39122">
        <ele>543</ele>
        <time>2016-05-22T13:27:04Z</time>
      </trkpt>
      <trkpt lat="43.84464" lon="5.39131">
        <ele>544</ele>
        <time>2016-05-22T13:27:10Z</time>
      </trkpt>
      <trkpt lat="43.8447" lon="5.39152">
        <ele>545</ele>
        <time>2016-05-22T13:27:24Z</time>
      </trkpt>
      <trkpt lat="43.84474" lon="5.39172">
        <ele>546</ele>
        <time>2016-05-22T13:27:39Z</time>
      </trkpt>
      <trkpt lat="43.84477" lon="5.39188">
        <ele>547</ele>
        <time>2016-05-22T13:27:50Z</time>
      </trkpt>
      <trkpt lat="43.84484" lon="5.39215">
        <ele>549</ele>
        <time>2016-05-22T13:28:10Z</time>
      </trkpt>
      <trkpt lat="43.84487" lon="5.39234">
        <ele>549</ele>
        <time>2016-05-22T13:28:24Z</time>
      </trkpt>
      <trkpt lat="43.84489" lon="5.39247">
        <ele>549</ele>
        <time>2016-05-22T13:28:33Z</time>
      </trkpt>
      <trkpt lat="43.84491" lon="5.39255">
        <ele>549</ele>
        <time>2016-05-22T13:28:39Z</time>
      </trkpt>
      <trkpt lat="43.84496" lon="5.39276">
        <ele>548</ele>
        <time>2016-05-22T13:28:54Z</time>
      </trkpt>
      <trkpt lat="43.84497" lon="5.3928">
        <ele>548</ele>
        <time>2016-05-22T13:28:57Z</time>
      </trkpt>
      <trkpt lat="43.84499" lon="5.39292">
        <ele>548</ele>
        <time>2016-05-22T13:29:06Z</time>
      </trkpt>
      <trkpt lat="43.84505" lon="5.39317">
        <ele>547</ele>
        <time>2016-05-22T13:29:24Z</time>
      </trkpt>
      <trkpt lat="43.84509" lon="5.39332">
        <ele>547</ele>
        <time>2016-05-22T13:29:36Z</time>
      </trkpt>
      <trkpt lat="43.84514" lon="5.39357">
        <ele>547</ele>
        <time>2016-05-22T13:29:54Z</time>
      </trkpt>
      <trkpt lat="43.84514" lon="5.39361">
        <ele>546</ele>
        <time>2016-05-22T13:29:57Z</time>
      </trkpt>
      <trkpt lat="43.84519" lon="5.39384">
        <ele>546</ele>
        <time>2016-05-22T13:30:14Z</time>
      </trkpt>
      <trkpt lat="43.84525" lon="5.39411">
        <ele>546</ele>
        <time>2016-05-22T13:30:34Z</time>
      </trkpt>
      <trkpt lat="43.84526" lon="5.39419">
        <ele>546</ele>
        <time>2016-05-22T13:30:40Z</time>
      </trkpt>
      <trkpt lat="43.84528" lon="5.39429">
        <ele>546</ele>
        <time>2016-05-22T13:30:47Z</time>
      </trkpt>
      <trkpt lat="43.84531" lon="5.39442">
        <ele>546</ele>
        <time>2016-05-22T13:30:57Z</time>
      </trkpt>
      <trkpt lat="43.84537" lon="5.39471">
        <ele>546</ele>
        <time>2016-05-22T13:31:18Z</time>
      </trkpt>
      <trkpt lat="43.84538" lon="5.39475">
        <ele>546</ele>
        <time>2016-05-22T13:31:21Z</time>
      </trkpt>
      <trkpt lat="43.84544" lon="5.39496">
        <ele>546</ele>
        <time>2016-05-22T13:31:36Z</time>
      </trkpt>
      <trkpt lat="43.84545" lon="5.39501">
        <ele>546</ele>
        <time>2016-05-22T13:31:40Z</time>
      </trkpt>
      <trkpt lat="43.8455" lon="5.39527">
        <ele>546</ele>
        <time>2016-05-22T13:31:58Z</time>
      </trkpt>
      <trkpt lat="43.84555" lon="5.39552">
        <ele>546</ele>
        <time>2016-05-22T13:32:16Z</time>
      </trkpt>
      <trkpt lat="43.84559" lon="5.39575">
        <ele>546</ele>
        <time>2016-05-22T13:32:33Z</time>
      </trkpt>
      <trkpt lat="43.84564" lon="5.396">
        <ele>546</ele>
        <time>2016-05-22T13:32:50Z</time>
      </trkpt>
      <trkpt lat="43.84566" lon="5.39611">
        <ele>546</ele>
        <time>2016-05-22T13:32:58Z</time>
      </trkpt>
      <trkpt lat="43.84569" lon="5.39641">
        <ele>545</ele>
        <time>2016-05-22T13:33:18Z</time>
      </trkpt>
      <trkpt lat="43.8457" lon="5.39665">
        <ele>545</ele>
        <time>2016-05-22T13:33:34Z</time>
      </trkpt>
      <trkpt lat="43.84569" lon="5.39672">
        <ele>545</ele>
        <time>2016-05-22T13:33:39Z</time>
      </trkpt>
      <trkpt lat="43.84569" lon="5.39676">
        <ele>546</ele>
        <time>2016-05-22T13:33:42Z</time>
      </trkpt>
      <trkpt lat="43.8457" lon="5.39681">
        <ele>546</ele>
        <time>2016-05-22T13:33:45Z</time>
      </trkpt>
      <trkpt lat="43.84569" lon="5.39706">
        <ele>547</ele>
        <time>2016-05-22T13:34:02Z</time>
      </trkpt>
      <trkpt lat="43.84568" lon="5.39726">
        <ele>548</ele>
        <time>2016-05-22T13:34:16Z</time>
      </trkpt>
      <trkpt lat="43.84568" lon="5.3973">
        <ele>548</ele>
        <time>2016-05-22T13:34:20Z</time>
      </trkpt>
      <trkpt lat="43.84567" lon="5.39754">
        <ele>550</ele>
        <time>2016-05-22T13:34:37Z</time>
      </trkpt>
      <trkpt lat="43.84567" lon="5.39779">
        <ele>552</ele>
        <time>2016-05-22T13:34:54Z</time>
      </trkpt>
      <trkpt lat="43.84567" lon="5.39784">
        <ele>552</ele>
        <time>2016-05-22T13:34:58Z</time>
      </trkpt>
      <trkpt lat="43.84566" lon="5.39795">
        <ele>552</ele>
        <time>2016-05-22T13:35:07Z</time>
      </trkpt>
      <trkpt lat="43.84566" lon="5.39803">
        <ele>553</ele>
        <time>2016-05-22T13:35:12Z</time>
      </trkpt>
      <trkpt lat="43.84567" lon="5.39825">
        <ele>553</ele>
        <time>2016-05-22T13:35:27Z</time>
      </trkpt>
      <trkpt lat="43.84567" lon="5.3984">
        <ele>553</ele>
        <time>2016-05-22T13:35:38Z</time>
      </trkpt>
      <trkpt lat="43.84567" lon="5.39844">
        <ele>553</ele>
        <time>2016-05-22T13:35:41Z</time>
      </trkpt>
      <trkpt lat="43.84567" lon="5.39848">
        <ele>553</ele>
        <time>2016-05-22T13:35:44Z</time>
      </trkpt>
      <trkpt lat="43.84566" lon="5.39877">
        <ele>554</ele>
        <time>2016-05-22T13:36:03Z</time>
      </trkpt>
      <trkpt lat="43.84566" lon="5.39892">
        <ele>554</ele>
        <time>2016-05-22T13:36:14Z</time>
      </trkpt>
      <trkpt lat="43.84566" lon="5.39895">
        <ele>554</ele>
        <time>2016-05-22T13:36:16Z</time>
      </trkpt>
      <trkpt lat="43.84565" lon="5.39926">
        <ele>554</ele>
        <time>2016-05-22T13:36:37Z</time>
      </trkpt>
      <trkpt lat="43.84566" lon="5.39935">
        <ele>554</ele>
        <time>2016-05-22T13:36:43Z</time>
      </trkpt>
      <trkpt lat="43.84566" lon="5.39968">
        <ele>553</ele>
        <time>2016-05-22T13:37:04Z</time>
      </trkpt>
      <trkpt lat="43.84567" lon="5.39997">
        <ele>553</ele>
        <time>2016-05-22T13:37:24Z</time>
      </trkpt>
      <trkpt lat="43.84567" lon="5.40007">
        <ele>553</ele>
        <time>2016-05-22T13:37:31Z</time>
      </trkpt>
      <trkpt lat="43.84566" lon="5.40039">
        <ele>552</ele>
        <time>2016-05-22T13:37:53Z</time>
      </trkpt>
      <trkpt lat="43.84565" lon="5.40054">
        <ele>553</ele>
        <time>2016-05-22T13:38:03Z</time>
      </trkpt>
      <trkpt lat="43.84565" lon="5.40065">
        <ele>554</ele>
        <time>2016-05-22T13:38:10Z</time>
      </trkpt>
      <trkpt lat="43.84566" lon="5.40091">
        <ele>555</ele>
        <time>2016-05-22T13:38:29Z</time>
      </trkpt>
      <trkpt lat="43.84566" lon="5.40118">
        <ele>555</ele>
        <time>2016-05-22T13:38:46Z</time>
      </trkpt>
      <trkpt lat="43.84566" lon="5.40144">
        <ele>556</ele>
        <time>2016-05-22T13:39:04Z</time>
      </trkpt>
      <trkpt lat="43.84566" lon="5.40172">
        <ele>556</ele>
        <time>2016-05-22T13:39:24Z</time>
      </trkpt>
      <trkpt lat="43.84567" lon="5.40204">
        <ele>556</ele>
        <time>2016-05-22T13:39:46Z</time>
      </trkpt>
      <trkpt lat="43.84568" lon="5.40227">
        <ele>555</ele>
        <time>2016-05-22T13:40:03Z</time>
      </trkpt>
      <trkpt lat="43.84567" lon="5.40249">
        <ele>555</ele>
        <time>2016-05-22T13:40:20Z</time>
      </trkpt>
      <trkpt lat="43.84566" lon="5.40273">
        <ele>555</ele>
        <time>2016-05-22T13:40:39Z</time>
      </trkpt>
      <trkpt lat="43.84567" lon="5.40302">
        <ele>555</ele>
        <time>2016-05-22T13:41:00Z</time>
      </trkpt>
      <trkpt lat="43.84566" lon="5.40334">
        <ele>555</ele>
        <time>2016-05-22T13:41:21Z</time>
      </trkpt>
      <trkpt lat="43.84556" lon="5.40349">
        <ele>554</ele>
        <time>2016-05-22T13:41:39Z</time>
      </trkpt>
      <trkpt lat="43.84547" lon="5.40362">
        <ele>555</ele>
        <time>2016-05-22T13:41:55Z</time>
      </trkpt>
      <trkpt lat="43.84537" lon="5.40371">
        <ele>555</ele>
        <time>2016-05-22T13:42:16Z</time>
      </trkpt>
      <trkpt lat="43.84536" lon="5.4037">
        <ele>555</ele>
        <time>2016-05-22T13:42:34Z</time>
      </trkpt>
      <trkpt lat="43.84538" lon="5.40371">
        <ele>555</ele>
        <time>2016-05-22T13:42:53Z</time>
      </trkpt>
      <trkpt lat="43.84536" lon="5.40372">
        <ele>555</ele>
        <time>2016-05-22T13:43:13Z</time>
      </trkpt>
      <trkpt lat="43.84537" lon="5.40372">
        <ele>555</ele>
        <time>2016-05-22T13:43:43Z</time>
      </trkpt>
      <trkpt lat="43.84538" lon="5.40371">
        <ele>555</ele>
        <time>2016-05-22T13:43:57Z</time>
      </trkpt>
      <trkpt lat="43.84538" lon="5.40372">
        <ele>555</ele>
        <time>2016-05-22T13:43:58Z</time>
      </trkpt>
      <trkpt lat="43.84542" lon="5.40383">
        <ele>555</ele>
        <time>2016-05-22T13:44:12Z</time>
      </trkpt>
      <trkpt lat="43.84542" lon="5.40384">
        <ele>555</ele>
        <time>2016-05-22T13:44:13Z</time>
      </trkpt>
      <trkpt lat="43.84532" lon="5.40403">
        <ele>556</ele>
        <time>2016-05-22T13:44:30Z</time>
      </trkpt>
      <trkpt lat="43.84529" lon="5.40405">
        <ele>556</ele>
        <time>2016-05-22T13:44:34Z</time>
      </trkpt>
      <trkpt lat="43.84516" lon="5.4041">
        <ele>556</ele>
        <time>2016-05-22T13:44:51Z</time>
      </trkpt>
      <trkpt lat="43.84511" lon="5.40415">
        <ele>556</ele>
        <time>2016-05-22T13:45:04Z</time>
      </trkpt>
      <trkpt lat="43.84509" lon="5.40414">
        <ele>556</ele>
        <time>2016-05-22T13:45:25Z</time>
      </trkpt>
      <trkpt lat="43.84508" lon="5.40416">
        <ele>557</ele>
        <time>2016-05-22T13:45:41Z</time>
      </trkpt>
      <trkpt lat="43.84507" lon="5.40423">
        <ele>557</ele>
        <time>2016-05-22T13:45:59Z</time>
      </trkpt>
      <trkpt lat="43.84504" lon="5.40428">
        <ele>557</ele>
        <time>2016-05-22T13:46:05Z</time>
      </trkpt>
      <trkpt lat="43.84496" lon="5.40437">
        <ele>558</ele>
        <time>2016-05-22T13:46:16Z</time>
      </trkpt>
      <trkpt lat="43.84491" lon="5.40439">
        <ele>558</ele>
        <time>2016-05-22T13:46:21Z</time>
      </trkpt>
      <trkpt lat="43.84485" lon="5.40443">
        <ele>558</ele>
        <time>2016-05-22T13:46:27Z</time>
      </trkpt>
      <trkpt lat="43.84484" lon="5.40448">
        <ele>558</ele>
        <time>2016-05-22T13:46:31Z</time>
      </trkpt>
      <trkpt lat="43.8449" lon="5.40458">
        <ele>559</ele>
        <time>2016-05-22T13:46:44Z</time>
      </trkpt>
      <trkpt lat="43.84489" lon="5.40459">
        <ele>559</ele>
        <time>2016-05-22T13:46:46Z</time>
      </trkpt>
      <trkpt lat="43.84478" lon="5.40474">
        <ele>560</ele>
        <time>2016-05-22T13:47:02Z</time>
      </trkpt>
      <trkpt lat="43.84466" lon="5.40486">
        <ele>560</ele>
        <time>2016-05-22T13:47:17Z</time>
      </trkpt>
      <trkpt lat="43.84454" lon="5.40498">
        <ele>561</ele>
        <time>2016-05-22T13:47:31Z</time>
      </trkpt>
      <trkpt lat="43.84434" lon="5.40505">
        <ele>561</ele>
        <time>2016-05-22T13:47:48Z</time>
      </trkpt>
      <trkpt lat="43.84412" lon="5.40508">
        <ele>562</ele>
        <time>2016-05-22T13:48:06Z</time>
      </trkpt>
      <trkpt lat="43.84397" lon="5.40512">
        <ele>562</ele>
        <time>2016-05-22T13:48:21Z</time>
      </trkpt>
      <trkpt lat="43.84379" lon="5.40514">
        <ele>562</ele>
        <time>2016-05-22T13:48:36Z</time>
      </trkpt>
      <trkpt lat="43.84374" lon="5.40514">
        <ele>562</ele>
        <time>2016-05-22T13:48:42Z</time>
      </trkpt>
      <trkpt lat="43.84362" lon="5.40517">
        <ele>562</ele>
        <time>2016-05-22T13:48:53Z</time>
      </trkpt>
      <trkpt lat="43.84356" lon="5.40517">
        <ele>562</ele>
        <time>2016-05-22T13:48:58Z</time>
      </trkpt>
      <trkpt lat="43.84346" lon="5.40522">
        <ele>562</ele>
        <time>2016-05-22T13:49:06Z</time>
      </trkpt>
      <trkpt lat="43.84337" lon="5.40527">
        <ele>562</ele>
        <time>2016-05-22T13:49:16Z</time>
      </trkpt>
      <trkpt lat="43.84322" lon="5.40541">
        <ele>562</ele>
        <time>2016-05-22T13:49:30Z</time>
      </trkpt>
      <trkpt lat="43.84313" lon="5.40548">
        <ele>562</ele>
        <time>2016-05-22T13:49:38Z</time>
      </trkpt>
      <trkpt lat="43.84298" lon="5.40556">
        <ele>562</ele>
        <time>2016-05-22T13:49:54Z</time>
      </trkpt>
      <trkpt lat="43.84296" lon="5.40558">
        <ele>562</ele>
        <time>2016-05-22T13:49:56Z</time>
      </trkpt>
      <trkpt lat="43.84294" lon="5.4056">
        <ele>562</ele>
        <time>2016-05-22T13:49:58Z</time>
      </trkpt>
      <trkpt lat="43.84285" lon="5.4056">
        <ele>562</ele>
        <time>2016-05-22T13:50:13Z</time>
      </trkpt>
      <trkpt lat="43.84284" lon="5.40561">
        <ele>562</ele>
        <time>2016-05-22T13:50:16Z</time>
      </trkpt>
      <trkpt lat="43.8427" lon="5.40567">
        <ele>562</ele>
        <time>2016-05-22T13:50:30Z</time>
      </trkpt>
      <trkpt lat="43.84256" lon="5.40574">
        <ele>562</ele>
        <time>2016-05-22T13:50:43Z</time>
      </trkpt>
      <trkpt lat="43.84238" lon="5.40576">
        <ele>562</ele>
        <time>2016-05-22T13:50:58Z</time>
      </trkpt>
      <trkpt lat="43.84229" lon="5.40582">
        <ele>562</ele>
        <time>2016-05-22T13:51:08Z</time>
      </trkpt>
      <trkpt lat="43.84221" lon="5.40584">
        <ele>562</ele>
        <time>2016-05-22T13:51:16Z</time>
      </trkpt>
      <trkpt lat="43.84204" lon="5.40588">
        <ele>563</ele>
        <time>2016-05-22T13:51:34Z</time>
      </trkpt>
      <trkpt lat="43.84199" lon="5.40589">
        <ele>563</ele>
        <time>2016-05-22T13:51:39Z</time>
      </trkpt>
      <trkpt lat="43.84181" lon="5.40598">
        <ele>563</ele>
        <time>2016-05-22T13:51:56Z</time>
      </trkpt>
      <trkpt lat="43.84174" lon="5.40599">
        <ele>563</ele>
        <time>2016-05-22T13:52:02Z</time>
      </trkpt>
      <trkpt lat="43.84169" lon="5.40601">
        <ele>563</ele>
        <time>2016-05-22T13:52:06Z</time>
      </trkpt>
      <trkpt lat="43.84156" lon="5.406">
        <ele>563</ele>
        <time>2016-05-22T13:52:16Z</time>
      </trkpt>
      <trkpt lat="43.84138" lon="5.40604">
        <ele>563</ele>
        <time>2016-05-22T13:52:30Z</time>
      </trkpt>
      <trkpt lat="43.84122" lon="5.40611">
        <ele>563</ele>
        <time>2016-05-22T13:52:46Z</time>
      </trkpt>
      <trkpt lat="43.84119" lon="5.40612">
        <ele>563</ele>
        <time>2016-05-22T13:52:49Z</time>
      </trkpt>
      <trkpt lat="43.84102" lon="5.40617">
        <ele>562</ele>
        <time>2016-05-22T13:53:04Z</time>
      </trkpt>
      <trkpt lat="43.84098" lon="5.40619">
        <ele>562</ele>
        <time>2016-05-22T13:53:08Z</time>
      </trkpt>
      <trkpt lat="43.84097" lon="5.4062">
        <ele>562</ele>
        <time>2016-05-22T13:53:10Z</time>
      </trkpt>
      <trkpt lat="43.84082" lon="5.40624">
        <ele>562</ele>
        <time>2016-05-22T13:53:24Z</time>
      </trkpt>
      <trkpt lat="43.84071" lon="5.40632">
        <ele>561</ele>
        <time>2016-05-22T13:53:37Z</time>
      </trkpt>
      <trkpt lat="43.84055" lon="5.40633">
        <ele>561</ele>
        <time>2016-05-22T13:53:52Z</time>
      </trkpt>
      <trkpt lat="43.8404" lon="5.40633">
        <ele>560</ele>
        <time>2016-05-22T13:54:07Z</time>
      </trkpt>
      <trkpt lat="43.84025" lon="5.40638">
        <ele>558</ele>
        <time>2016-05-22T13:54:22Z</time>
      </trkpt>
      <trkpt lat="43.84014" lon="5.40639">
        <ele>556</ele>
        <time>2016-05-22T13:54:30Z</time>
      </trkpt>
      <trkpt lat="43.84007" lon="5.40641">
        <ele>556</ele>
        <time>2016-05-22T13:54:36Z</time>
      </trkpt>
      <trkpt lat="43.83994" lon="5.40644">
        <ele>554</ele>
        <time>2016-05-22T13:54:50Z</time>
      </trkpt>
      <trkpt lat="43.83986" lon="5.40646">
        <ele>553</ele>
        <time>2016-05-22T13:54:59Z</time>
      </trkpt>
      <trkpt lat="43.83972" lon="5.40649">
        <ele>550</ele>
        <time>2016-05-22T13:55:10Z</time>
      </trkpt>
      <trkpt lat="43.83969" lon="5.40649">
        <ele>549</ele>
        <time>2016-05-22T13:55:12Z</time>
      </trkpt>
      <trkpt lat="43.83957" lon="5.40654">
        <ele>548</ele>
        <time>2016-05-22T13:55:22Z</time>
      </trkpt>
      <trkpt lat="43.83954" lon="5.40657">
        <ele>547</ele>
        <time>2016-05-22T13:55:26Z</time>
      </trkpt>
      <trkpt lat="43.8395" lon="5.40661">
        <ele>547</ele>
        <time>2016-05-22T13:55:31Z</time>
      </trkpt>
      <trkpt lat="43.83942" lon="5.40667">
        <ele>545</ele>
        <time>2016-05-22T13:55:47Z</time>
      </trkpt>
      <trkpt lat="43.83941" lon="5.40668">
        <ele>545</ele>
        <time>2016-05-22T13:55:53Z</time>
      </trkpt>
      <trkpt lat="43.83937" lon="5.40673">
        <ele>544</ele>
        <time>2016-05-22T13:55:59Z</time>
      </trkpt>
      <trkpt lat="43.83936" lon="5.40675">
        <ele>544</ele>
        <time>2016-05-22T13:56:02Z</time>
      </trkpt>
      <trkpt lat="43.83932" lon="5.40679">
        <ele>544</ele>
        <time>2016-05-22T13:56:06Z</time>
      </trkpt>
      <trkpt lat="43.83927" lon="5.40689">
        <ele>543</ele>
        <time>2016-05-22T13:56:13Z</time>
      </trkpt>
      <trkpt lat="43.83914" lon="5.40705">
        <ele>542</ele>
        <time>2016-05-22T13:56:27Z</time>
      </trkpt>
      <trkpt lat="43.83903" lon="5.4072">
        <ele>541</ele>
        <time>2016-05-22T13:56:39Z</time>
      </trkpt>
      <trkpt lat="43.83891" lon="5.40735">
        <ele>540</ele>
        <time>2016-05-22T13:56:55Z</time>
      </trkpt>
      <trkpt lat="43.83886" lon="5.4074">
        <ele>539</ele>
        <time>2016-05-22T13:57:01Z</time>
      </trkpt>
      <trkpt lat="43.83879" lon="5.40745">
        <ele>537</ele>
        <time>2016-05-22T13:57:15Z</time>
      </trkpt>
      <trkpt lat="43.83872" lon="5.40758">
        <ele>536</ele>
        <time>2016-05-22T13:57:25Z</time>
      </trkpt>
      <trkpt lat="43.83862" lon="5.40776">
        <ele>533</ele>
        <time>2016-05-22T13:57:40Z</time>
      </trkpt>
      <trkpt lat="43.83856" lon="5.4079">
        <ele>532</ele>
        <time>2016-05-22T13:57:51Z</time>
      </trkpt>
      <trkpt lat="43.83849" lon="5.40803">
        <ele>529</ele>
        <time>2016-05-22T13:58:01Z</time>
      </trkpt>
      <trkpt lat="43.83845" lon="5.40801">
        <ele>528</ele>
        <time>2016-05-22T13:58:05Z</time>
      </trkpt>
      <trkpt lat="43.83838" lon="5.40787">
        <ele>525</ele>
        <time>2016-05-22T13:58:16Z</time>
      </trkpt>
      <trkpt lat="43.83829" lon="5.40759">
        <ele>521</ele>
        <time>2016-05-22T13:58:34Z</time>
      </trkpt>
      <trkpt lat="43.83829" lon="5.40757">
        <ele>521</ele>
        <time>2016-05-22T13:58:35Z</time>
      </trkpt>
      <trkpt lat="43.8383" lon="5.40734">
        <ele>520</ele>
        <time>2016-05-22T13:58:52Z</time>
      </trkpt>
      <trkpt lat="43.83824" lon="5.40747">
        <ele>519</ele>
        <time>2016-05-22T13:59:05Z</time>
      </trkpt>
      <trkpt lat="43.8382" lon="5.40754">
        <ele>517</ele>
        <time>2016-05-22T13:59:11Z</time>
      </trkpt>
      <trkpt lat="43.83818" lon="5.40756">
        <ele>517</ele>
        <time>2016-05-22T13:59:14Z</time>
      </trkpt>
      <trkpt lat="43.83817" lon="5.40755">
        <ele>516</ele>
        <time>2016-05-22T13:59:16Z</time>
      </trkpt>
      <trkpt lat="43.83815" lon="5.40756">
        <ele>515</ele>
        <time>2016-05-22T13:59:18Z</time>
      </trkpt>
      <trkpt lat="43.83811" lon="5.40756">
        <ele>514</ele>
        <time>2016-05-22T13:59:21Z</time>
      </trkpt>
      <trkpt lat="43.83804" lon="5.40759">
        <ele>511</ele>
        <time>2016-05-22T13:59:30Z</time>
      </trkpt>
      <trkpt lat="43.83803" lon="5.40761">
        <ele>511</ele>
        <time>2016-05-22T13:59:32Z</time>
      </trkpt>
      <trkpt lat="43.838" lon="5.40763">
        <ele>509</ele>
        <time>2016-05-22T13:59:35Z</time>
      </trkpt>
      <trkpt lat="43.83796" lon="5.40764">
        <ele>508</ele>
        <time>2016-05-22T13:59:38Z</time>
      </trkpt>
      <trkpt lat="43.83788" lon="5.40754">
        <ele>505</ele>
        <time>2016-05-22T13:59:51Z</time>
      </trkpt>
      <trkpt lat="43.8379" lon="5.40761">
        <ele>506</ele>
        <time>2016-05-22T14:00:05Z</time>
      </trkpt>
      <trkpt lat="43.8379" lon="5.40762">
        <ele>506</ele>
        <time>2016-05-22T14:00:07Z</time>
      </trkpt>
      <trkpt lat="43.83795" lon="5.40761">
        <ele>507</ele>
        <time>2016-05-22T14:00:25Z</time>
      </trkpt>
      <trkpt lat="43.83795" lon="5.4076">
        <ele>507</ele>
        <time>2016-05-22T14:00:39Z</time>
      </trkpt>
      <trkpt lat="43.8379" lon="5.40756">
        <ele>506</ele>
        <time>2016-05-22T14:00:46Z</time>
      </trkpt>
      <trkpt lat="43.83787" lon="5.40741">
        <ele>504</ele>
        <time>2016-05-22T14:01:02Z</time>
      </trkpt>
      <trkpt lat="43.83786" lon="5.4074">
        <ele>504</ele>
        <time>2016-05-22T14:01:03Z</time>
      </trkpt>
      <trkpt lat="43.83783" lon="5.40724">
        <ele>502</ele>
        <time>2016-05-22T14:01:18Z</time>
      </trkpt>
      <trkpt lat="43.83781" lon="5.40712">
        <ele>501</ele>
        <time>2016-05-22T14:01:31Z</time>
      </trkpt>
      <trkpt lat="43.83776" lon="5.40698">
        <ele>499</ele>
        <time>2016-05-22T14:01:44Z</time>
      </trkpt>
      <trkpt lat="43.83769" lon="5.40686">
        <ele>497</ele>
        <time>2016-05-22T14:01:57Z</time>
      </trkpt>
      <trkpt lat="43.83769" lon="5.40686">
        <ele>497</ele>
        <time>2016-05-22T14:01:58Z</time>
      </trkpt>
      <trkpt lat="43.8376" lon="5.40681">
        <ele>496</ele>
        <time>2016-05-22T14:02:10Z</time>
      </trkpt>
      <trkpt lat="43.83748" lon="5.40665">
        <ele>495</ele>
        <time>2016-05-22T14:02:24Z</time>
      </trkpt>
      <trkpt lat="43.83748" lon="5.4066">
        <ele>495</ele>
        <time>2016-05-22T14:02:28Z</time>
      </trkpt>
      <trkpt lat="43.83743" lon="5.40644">
        <ele>496</ele>
        <time>2016-05-22T14:02:43Z</time>
      </trkpt>
      <trkpt lat="43.8374" lon="5.40642">
        <ele>495</ele>
        <time>2016-05-22T14:02:48Z</time>
      </trkpt>
      <trkpt lat="43.83735" lon="5.40645">
        <ele>494</ele>
        <time>2016-05-22T14:03:02Z</time>
      </trkpt>
      <trkpt lat="43.8373" lon="5.4066">
        <ele>492</ele>
        <time>2016-05-22T14:03:18Z</time>
      </trkpt>
      <trkpt lat="43.8373" lon="5.4067">
        <ele>491</ele>
        <time>2016-05-22T14:03:30Z</time>
      </trkpt>
      <trkpt lat="43.8373" lon="5.40681">
        <ele>490</ele>
        <time>2016-05-22T14:03:44Z</time>
      </trkpt>
      <trkpt lat="43.83729" lon="5.40693">
        <ele>490</ele>
        <time>2016-05-22T14:03:57Z</time>
      </trkpt>
      <trkpt lat="43.83723" lon="5.40695">
        <ele>489</ele>
        <time>2016-05-22T14:04:07Z</time>
      </trkpt>
      <trkpt lat="43.83714" lon="5.40689">
        <ele>486</ele>
        <time>2016-05-22T14:04:20Z</time>
      </trkpt>
      <trkpt lat="43.8371" lon="5.40682">
        <ele>485</ele>
        <time>2016-05-22T14:04:32Z</time>
      </trkpt>
      <trkpt lat="43.83708" lon="5.40677">
        <ele>485</ele>
        <time>2016-05-22T14:04:40Z</time>
      </trkpt>
      <trkpt lat="43.83701" lon="5.40666">
        <ele>483</ele>
        <time>2016-05-22T14:04:53Z</time>
      </trkpt>
      <trkpt lat="43.83694" lon="5.40652">
        <ele>482</ele>
        <time>2016-05-22T14:05:06Z</time>
      </trkpt>
      <trkpt lat="43.83692" lon="5.40651">
        <ele>481</ele>
        <time>2016-05-22T14:05:08Z</time>
      </trkpt>
      <trkpt lat="43.83687" lon="5.40647">
        <ele>480</ele>
        <time>2016-05-22T14:05:13Z</time>
      </trkpt>
      <trkpt lat="43.83684" lon="5.4063">
        <ele>480</ele>
        <time>2016-05-22T14:05:27Z</time>
      </trkpt>
      <trkpt lat="43.83684" lon="5.40624">
        <ele>481</ele>
        <time>2016-05-22T14:05:32Z</time>
      </trkpt>
      <trkpt lat="43.83685" lon="5.4061">
        <ele>482</ele>
        <time>2016-05-22T14:05:45Z</time>
      </trkpt>
      <trkpt lat="43.83684" lon="5.40597">
        <ele>484</ele>
        <time>2016-05-22T14:05:59Z</time>
      </trkpt>
      <trkpt lat="43.83682" lon="5.40588">
        <ele>484</ele>
        <time>2016-05-22T14:06:13Z</time>
      </trkpt>
      <trkpt lat="43.83675" lon="5.40587">
        <ele>483</ele>
        <time>2016-05-22T14:06:27Z</time>
      </trkpt>
      <trkpt lat="43.83669" lon="5.40587">
        <ele>483</ele>
        <time>2016-05-22T14:06:33Z</time>
      </trkpt>
      <trkpt lat="43.83664" lon="5.40583">
        <ele>482</ele>
        <time>2016-05-22T14:06:39Z</time>
      </trkpt>
      <trkpt lat="43.83651" lon="5.40577">
        <ele>481</ele>
        <time>2016-05-22T14:06:52Z</time>
      </trkpt>
      <trkpt lat="43.83638" lon="5.40561">
        <ele>478</ele>
        <time>2016-05-22T14:07:05Z</time>
      </trkpt>
      <trkpt lat="43.8363" lon="5.40544">
        <ele>478</ele>
        <time>2016-05-22T14:07:18Z</time>
      </trkpt>
      <trkpt lat="43.83618" lon="5.40529">
        <ele>480</ele>
        <time>2016-05-22T14:07:33Z</time>
      </trkpt>
      <trkpt lat="43.83614" lon="5.40525">
        <ele>480</ele>
        <time>2016-05-22T14:07:37Z</time>
      </trkpt>
      <trkpt lat="43.83601" lon="5.40509">
        <ele>479</ele>
        <time>2016-05-22T14:07:53Z</time>
      </trkpt>
      <trkpt lat="43.83597" lon="5.40498">
        <ele>478</ele>
        <time>2016-05-22T14:08:02Z</time>
      </trkpt>
      <trkpt lat="43.83594" lon="5.4049">
        <ele>476</ele>
        <time>2016-05-22T14:08:10Z</time>
      </trkpt>
      <trkpt lat="43.83592" lon="5.40489">
        <ele>476</ele>
        <time>2016-05-22T14:08:12Z</time>
      </trkpt>
      <trkpt lat="43.83582" lon="5.4048">
        <ele>475</ele>
        <time>2016-05-22T14:08:23Z</time>
      </trkpt>
      <trkpt lat="43.8358" lon="5.40476">
        <ele>475</ele>
        <time>2016-05-22T14:08:26Z</time>
      </trkpt>
      <trkpt lat="43.8357" lon="5.40462">
        <ele>476</ele>
        <time>2016-05-22T14:08:40Z</time>
      </trkpt>
      <trkpt lat="43.83561" lon="5.40458">
        <ele>475</ele>
        <time>2016-05-22T14:08:53Z</time>
      </trkpt>
      <trkpt lat="43.83552" lon="5.40453">
        <ele>474</ele>
        <time>2016-05-22T14:09:06Z</time>
      </trkpt>
      <trkpt lat="43.83542" lon="5.40448">
        <ele>474</ele>
        <time>2016-05-22T14:09:19Z</time>
      </trkpt>
      <trkpt lat="43.83539" lon="5.40445">
        <ele>474</ele>
        <time>2016-05-22T14:09:25Z</time>
      </trkpt>
      <trkpt lat="43.8353" lon="5.40438">
        <ele>474</ele>
        <time>2016-05-22T14:09:34Z</time>
      </trkpt>
      <trkpt lat="43.83519" lon="5.40433">
        <ele>473</ele>
        <time>2016-05-22T14:09:48Z</time>
      </trkpt>
      <trkpt lat="43.83501" lon="5.40427">
        <ele>473</ele>
        <time>2016-05-22T14:10:02Z</time>
      </trkpt>
      <trkpt lat="43.83488" lon="5.40422">
        <ele>473</ele>
        <time>2016-05-22T14:10:16Z</time>
      </trkpt>
      <trkpt lat="43.83484" lon="5.40423">
        <ele>474</ele>
        <time>2016-05-22T14:10:29Z</time>
      </trkpt>
      <trkpt lat="43.83478" lon="5.40424">
        <ele>474</ele>
        <time>2016-05-22T14:10:43Z</time>
      </trkpt>
      <trkpt lat="43.83465" lon="5.40423">
        <ele>476</ele>
        <time>2016-05-22T14:10:55Z</time>
      </trkpt>
      <trkpt lat="43.83451" lon="5.40421">
        <ele>478</ele>
        <time>2016-05-22T14:11:10Z</time>
      </trkpt>
      <trkpt lat="43.8345" lon="5.40423">
        <ele>479</ele>
        <time>2016-05-22T14:11:17Z</time>
      </trkpt>
      <trkpt lat="43.83444" lon="5.4042">
        <ele>480</ele>
        <time>2016-05-22T14:11:26Z</time>
      </trkpt>
      <trkpt lat="43.83433" lon="5.4041">
        <ele>480</ele>
        <time>2016-05-22T14:11:38Z</time>
      </trkpt>
      <trkpt lat="43.83433" lon="5.40397">
        <ele>479</ele>
        <time>2016-05-22T14:11:49Z</time>
      </trkpt>
      <trkpt lat="43.83431" lon="5.40384">
        <ele>478</ele>
        <time>2016-05-22T14:12:06Z</time>
      </trkpt>
      <trkpt lat="43.83422" lon="5.40374">
        <ele>478</ele>
        <time>2016-05-22T14:12:30Z</time>
      </trkpt>
      <trkpt lat="43.83401" lon="5.40359">
        <ele>482</ele>
        <time>2016-05-22T14:12:44Z</time>
      </trkpt>
      <trkpt lat="43.83389" lon="5.40342">
        <ele>484</ele>
        <time>2016-05-22T14:13:00Z</time>
      </trkpt>
      <trkpt lat="43.83383" lon="5.40334">
        <ele>484</ele>
        <time>2016-05-22T14:13:09Z</time>
      </trkpt>
      <trkpt lat="43.83378" lon="5.40327">
        <ele>485</ele>
        <time>2016-05-22T14:13:24Z</time>
      </trkpt>
      <trkpt lat="43.83372" lon="5.40316">
        <ele>484</ele>
        <time>2016-05-22T14:13:38Z</time>
      </trkpt>
      <trkpt lat="43.83366" lon="5.4031">
        <ele>485</ele>
        <time>2016-05-22T14:13:49Z</time>
      </trkpt>
      <trkpt lat="43.83359" lon="5.40303">
        <ele>487</ele>
        <time>2016-05-22T14:14:00Z</time>
      </trkpt>
      <trkpt lat="43.83356" lon="5.403">
        <ele>488</ele>
        <time>2016-05-22T14:14:04Z</time>
      </trkpt>
      <trkpt lat="43.83352" lon="5.40291">
        <ele>488</ele>
        <time>2016-05-22T14:14:18Z</time>
      </trkpt>
      <trkpt lat="43.83342" lon="5.40281">
        <ele>491</ele>
        <time>2016-05-22T14:14:39Z</time>
      </trkpt>
      <trkpt lat="43.83332" lon="5.40269">
        <ele>494</ele>
        <time>2016-05-22T14:14:52Z</time>
      </trkpt>
      <trkpt lat="43.83325" lon="5.40256">
        <ele>493</ele>
        <time>2016-05-22T14:15:07Z</time>
      </trkpt>
      <trkpt lat="43.83316" lon="5.40242">
        <ele>493</ele>
        <time>2016-05-22T14:15:19Z</time>
      </trkpt>
      <trkpt lat="43.83308" lon="5.40228">
        <ele>493</ele>
        <time>2016-05-22T14:15:32Z</time>
      </trkpt>
      <trkpt lat="43.83301" lon="5.40219">
        <ele>494</ele>
        <time>2016-05-22T14:15:44Z</time>
      </trkpt>
      <trkpt lat="43.83296" lon="5.40206">
        <ele>493</ele>
        <time>2016-05-22T14:15:58Z</time>
      </trkpt>
      <trkpt lat="43.83292" lon="5.40191">
        <ele>491</ele>
        <time>2016-05-22T14:16:14Z</time>
      </trkpt>
      <trkpt lat="43.83285" lon="5.40187">
        <ele>492</ele>
        <time>2016-05-22T14:16:26Z</time>
      </trkpt>
      <trkpt lat="43.83279" lon="5.40186">
        <ele>494</ele>
        <time>2016-05-22T14:16:39Z</time>
      </trkpt>
      <trkpt lat="43.83273" lon="5.40186">
        <ele>497</ele>
        <time>2016-05-22T14:16:51Z</time>
      </trkpt>
      <trkpt lat="43.83266" lon="5.40189">
        <ele>499</ele>
        <time>2016-05-22T14:17:02Z</time>
      </trkpt>
      <trkpt lat="43.8325" lon="5.40194">
        <ele>505</ele>
        <time>2016-05-22T14:17:18Z</time>
      </trkpt>
      <trkpt lat="43.83242" lon="5.40201">
        <ele>508</ele>
        <time>2016-05-22T14:17:34Z</time>
      </trkpt>
      <trkpt lat="43.83231" lon="5.40207">
        <ele>510</ele>
        <time>2016-05-22T14:17:47Z</time>
      </trkpt>
      <trkpt lat="43.83223" lon="5.40212">
        <ele>511</ele>
        <time>2016-05-22T14:18:01Z</time>
      </trkpt>
      <trkpt lat="43.83212" lon="5.40216">
        <ele>514</ele>
        <time>2016-05-22T14:18:16Z</time>
      </trkpt>
      <trkpt lat="43.83201" lon="5.40223">
        <ele>516</ele>
        <time>2016-05-22T14:18:32Z</time>
      </trkpt>
      <trkpt lat="43.83192" lon="5.40231">
        <ele>519</ele>
        <time>2016-05-22T14:18:48Z</time>
      </trkpt>
      <trkpt lat="43.83188" lon="5.40235">
        <ele>521</ele>
        <time>2016-05-22T14:18:56Z</time>
      </trkpt>
      <trkpt lat="43.83179" lon="5.40235">
        <ele>524</ele>
        <time>2016-05-22T14:19:09Z</time>
      </trkpt>
      <trkpt lat="43.83171" lon="5.40242">
        <ele>526</ele>
        <time>2016-05-22T14:19:21Z</time>
      </trkpt>
      <trkpt lat="43.83167" lon="5.40245">
        <ele>527</ele>
        <time>2016-05-22T14:19:25Z</time>
      </trkpt>
      <trkpt lat="43.83157" lon="5.40249">
        <ele>530</ele>
        <time>2016-05-22T14:19:38Z</time>
      </trkpt>
      <trkpt lat="43.83148" lon="5.40258">
        <ele>532</ele>
        <time>2016-05-22T14:19:54Z</time>
      </trkpt>
      <trkpt lat="43.83144" lon="5.40268">
        <ele>534</ele>
        <time>2016-05-22T14:20:09Z</time>
      </trkpt>
      <trkpt lat="43.83134" lon="5.40276">
        <ele>537</ele>
        <time>2016-05-22T14:20:24Z</time>
      </trkpt>
      <trkpt lat="43.8313" lon="5.40286">
        <ele>539</ele>
        <time>2016-05-22T14:20:35Z</time>
      </trkpt>
      <trkpt lat="43.83126" lon="5.40295">
        <ele>541</ele>
        <time>2016-05-22T14:20:48Z</time>
      </trkpt>
      <trkpt lat="43.83119" lon="5.40307">
        <ele>543</ele>
        <time>2016-05-22T14:21:03Z</time>
      </trkpt>
      <trkpt lat="43.83112" lon="5.40317">
        <ele>545</ele>
        <time>2016-05-22T14:21:15Z</time>
      </trkpt>
      <trkpt lat="43.83101" lon="5.40331">
        <ele>547</ele>
        <time>2016-05-22T14:21:30Z</time>
      </trkpt>
      <trkpt lat="43.83097" lon="5.40345">
        <ele>548</ele>
        <time>2016-05-22T14:21:43Z</time>
      </trkpt>
      <trkpt lat="43.83091" lon="5.40359">
        <ele>549</ele>
        <time>2016-05-22T14:21:55Z</time>
      </trkpt>
      <trkpt lat="43.83085" lon="5.40371">
        <ele>550</ele>
        <time>2016-05-22T14:22:10Z</time>
      </trkpt>
      <trkpt lat="43.83074" lon="5.40379">
        <ele>551</ele>
        <time>2016-05-22T14:22:23Z</time>
      </trkpt>
      <trkpt lat="43.83072" lon="5.40382">
        <ele>551</ele>
        <time>2016-05-22T14:22:27Z</time>
      </trkpt>
      <trkpt lat="43.83067" lon="5.40386">
        <ele>552</ele>
        <time>2016-05-22T14:22:34Z</time>
      </trkpt>
      <trkpt lat="43.83059" lon="5.40392">
        <ele>552</ele>
        <time>2016-05-22T14:22:42Z</time>
      </trkpt>
      <trkpt lat="43.83054" lon="5.40402">
        <ele>552</ele>
        <time>2016-05-22T14:22:56Z</time>
      </trkpt>
      <trkpt lat="43.83051" lon="5.4041">
        <ele>552</ele>
        <time>2016-05-22T14:23:08Z</time>
      </trkpt>
      <trkpt lat="43.83045" lon="5.40407">
        <ele>553</ele>
        <time>2016-05-22T14:23:21Z</time>
      </trkpt>
      <trkpt lat="43.83044" lon="5.40398">
        <ele>554</ele>
        <time>2016-05-22T14:23:33Z</time>
      </trkpt>
      <trkpt lat="43.83045" lon="5.40388">
        <ele>554</ele>
        <time>2016-05-22T14:23:46Z</time>
      </trkpt>
      <trkpt lat="43.83046" lon="5.40374">
        <ele>554</ele>
        <time>2016-05-22T14:23:55Z</time>
      </trkpt>
      <trkpt lat="43.83046" lon="5.40356">
        <ele>554</ele>
        <time>2016-05-22T14:24:09Z</time>
      </trkpt>
      <trkpt lat="43.83047" lon="5.40352">
        <ele>554</ele>
        <time>2016-05-22T14:24:12Z</time>
      </trkpt>
      <trkpt lat="43.83049" lon="5.40332">
        <ele>555</ele>
        <time>2016-05-22T14:24:28Z</time>
      </trkpt>
      <trkpt lat="43.83051" lon="5.40314">
        <ele>555</ele>
        <time>2016-05-22T14:24:44Z</time>
      </trkpt>
      <trkpt lat="43.83052" lon="5.40297">
        <ele>555</ele>
        <time>2016-05-22T14:24:56Z</time>
      </trkpt>
      <trkpt lat="43.83054" lon="5.40277">
        <ele>555</ele>
        <time>2016-05-22T14:25:11Z</time>
      </trkpt>
      <trkpt lat="43.83054" lon="5.40258">
        <ele>556</ele>
        <time>2016-05-22T14:25:26Z</time>
      </trkpt>
      <trkpt lat="43.83051" lon="5.40245">
        <ele>557</ele>
        <time>2016-05-22T14:25:37Z</time>
      </trkpt>
      <trkpt lat="43.83043" lon="5.40241">
        <ele>558</ele>
        <time>2016-05-22T14:25:50Z</time>
      </trkpt>
      <trkpt lat="43.83032" lon="5.40248">
        <ele>560</ele>
        <time>2016-05-22T14:26:03Z</time>
      </trkpt>
      <trkpt lat="43.83022" lon="5.40256">
        <ele>562</ele>
        <time>2016-05-22T14:26:18Z</time>
      </trkpt>
      <trkpt lat="43.83011" lon="5.40267">
        <ele>563</ele>
        <time>2016-05-22T14:26:33Z</time>
      </trkpt>
      <trkpt lat="43.83009" lon="5.40267">
        <ele>563</ele>
        <time>2016-05-22T14:26:35Z</time>
      </trkpt>
      <trkpt lat="43.83001" lon="5.40275">
        <ele>563</ele>
        <time>2016-05-22T14:26:43Z</time>
      </trkpt>
      <trkpt lat="43.82984" lon="5.40293">
        <ele>564</ele>
        <time>2016-05-22T14:27:00Z</time>
      </trkpt>
      <trkpt lat="43.82967" lon="5.40309">
        <ele>566</ele>
        <time>2016-05-22T14:27:18Z</time>
      </trkpt>
      <trkpt lat="43.82963" lon="5.40315">
        <ele>566</ele>
        <time>2016-05-22T14:27:22Z</time>
      </trkpt>
      <trkpt lat="43.8296" lon="5.40319">
        <ele>567</ele>
        <time>2016-05-22T14:27:25Z</time>
      </trkpt>
      <trkpt lat="43.82943" lon="5.40328">
        <ele>568</ele>
        <time>2016-05-22T14:27:40Z</time>
      </trkpt>
      <trkpt lat="43.82928" lon="5.40339">
        <ele>569</ele>
        <time>2016-05-22T14:27:56Z</time>
      </trkpt>
      <trkpt lat="43.82917" lon="5.40348">
        <ele>569</ele>
        <time>2016-05-22T14:28:09Z</time>
      </trkpt>
      <trkpt lat="43.82912" lon="5.40348">
        <ele>569</ele>
        <time>2016-05-22T14:28:13Z</time>
      </trkpt>
      <trkpt lat="43.82894" lon="5.4035">
        <ele>569</ele>
        <time>2016-05-22T14:28:29Z</time>
      </trkpt>
      <trkpt lat="43.82878" lon="5.40354">
        <ele>569</ele>
        <time>2016-05-22T14:28:46Z</time>
      </trkpt>
      <trkpt lat="43.82874" lon="5.40357">
        <ele>569</ele>
        <time>2016-05-22T14:29:04Z</time>
      </trkpt>
      <trkpt lat="43.82865" lon="5.4036">
        <ele>569</ele>
        <time>2016-05-22T14:29:21Z</time>
      </trkpt>
      <trkpt lat="43.82855" lon="5.40367">
        <ele>569</ele>
        <time>2016-05-22T14:29:40Z</time>
      </trkpt>
      <trkpt lat="43.82835" lon="5.4037">
        <ele>568</ele>
        <time>2016-05-22T14:29:57Z</time>
      </trkpt>
      <trkpt lat="43.82825" lon="5.40375">
        <ele>568</ele>
        <time>2016-05-22T14:30:10Z</time>
      </trkpt>
      <trkpt lat="43.82809" lon="5.40379">
        <ele>567</ele>
        <time>2016-05-22T14:30:27Z</time>
      </trkpt>
      <trkpt lat="43.82801" lon="5.40379">
        <ele>567</ele>
        <time>2016-05-22T14:30:42Z</time>
      </trkpt>
      <trkpt lat="43.82789" lon="5.40382">
        <ele>566</ele>
        <time>2016-05-22T14:30:57Z</time>
      </trkpt>
      <trkpt lat="43.82785" lon="5.40381">
        <ele>565</ele>
        <time>2016-05-22T14:31:13Z</time>
      </trkpt>
      <trkpt lat="43.82784" lon="5.40386">
        <ele>566</ele>
        <time>2016-05-22T14:31:17Z</time>
      </trkpt>
      <trkpt lat="43.82774" lon="5.40404">
        <ele>567</ele>
        <time>2016-05-22T14:31:33Z</time>
      </trkpt>
      <trkpt lat="43.82769" lon="5.40413">
        <ele>568</ele>
        <time>2016-05-22T14:31:44Z</time>
      </trkpt>
      <trkpt lat="43.82765" lon="5.40419">
        <ele>568</ele>
        <time>2016-05-22T14:31:58Z</time>
      </trkpt>
      <trkpt lat="43.82758" lon="5.40428">
        <ele>569</ele>
        <time>2016-05-22T14:32:13Z</time>
      </trkpt>
      <trkpt lat="43.82755" lon="5.4043">
        <ele>569</ele>
        <time>2016-05-22T14:32:31Z</time>
      </trkpt>
      <trkpt lat="43.82749" lon="5.40438">
        <ele>570</ele>
        <time>2016-05-22T14:32:45Z</time>
      </trkpt>
      <trkpt lat="43.82735" lon="5.40437">
        <ele>569</ele>
        <time>2016-05-22T14:33:05Z</time>
      </trkpt>
      <trkpt lat="43.82734" lon="5.40433">
        <ele>568</ele>
        <time>2016-05-22T14:33:21Z</time>
      </trkpt>
      <trkpt lat="43.82732" lon="5.40435">
        <ele>569</ele>
        <time>2016-05-22T14:33:44Z</time>
      </trkpt>
      <trkpt lat="43.82737" lon="5.40436">
        <ele>569</ele>
        <time>2016-05-22T14:34:02Z</time>
      </trkpt>
      <trkpt lat="43.82746" lon="5.40429">
        <ele>569</ele>
        <time>2016-05-22T14:34:13Z</time>
      </trkpt>
      <trkpt lat="43.82754" lon="5.4042">
        <ele>568</ele>
        <time>2016-05-22T14:34:28Z</time>
      </trkpt>
      <trkpt lat="43.82762" lon="5.40411">
        <ele>567</ele>
        <time>2016-05-22T14:34:40Z</time>
      </trkpt>
      <trkpt lat="43.8277" lon="5.40394">
        <ele>566</ele>
        <time>2016-05-22T14:34:58Z</time>
      </trkpt>
      <trkpt lat="43.8278" lon="5.40385">
        <ele>565</ele>
        <time>2016-05-22T14:35:11Z</time>
      </trkpt>
      <trkpt lat="43.82787" lon="5.40376">
        <ele>565</ele>
        <time>2016-05-22T14:35:23Z</time>
      </trkpt>
      <trkpt lat="43.8279" lon="5.40364">
        <ele>564</ele>
        <time>2016-05-22T14:35:38Z</time>
      </trkpt>
      <trkpt lat="43.82796" lon="5.40349">
        <ele>562</ele>
        <time>2016-05-22T14:35:53Z</time>
      </trkpt>
      <trkpt lat="43.82808" lon="5.4034">
        <ele>562</ele>
        <time>2016-05-22T14:36:09Z</time>
      </trkpt>
      <trkpt lat="43.82819" lon="5.40331">
        <ele>562</ele>
        <time>2016-05-22T14:36:29Z</time>
      </trkpt>
      <trkpt lat="43.82823" lon="5.40331">
        <ele>562</ele>
        <time>2016-05-22T14:36:42Z</time>
      </trkpt>
      <trkpt lat="43.82832" lon="5.40328">
        <ele>563</ele>
        <time>2016-05-22T14:36:56Z</time>
      </trkpt>
      <trkpt lat="43.82839" lon="5.40323">
        <ele>563</ele>
        <time>2016-05-22T14:37:13Z</time>
      </trkpt>
      <trkpt lat="43.82841" lon="5.4032">
        <ele>563</ele>
        <time>2016-05-22T14:37:28Z</time>
      </trkpt>
      <trkpt lat="43.8284" lon="5.40316">
        <ele>562</ele>
        <time>2016-05-22T14:37:47Z</time>
      </trkpt>
      <trkpt lat="43.82839" lon="5.40313">
        <ele>561</ele>
        <time>2016-05-22T14:38:08Z</time>
      </trkpt>
      <trkpt lat="43.82839" lon="5.40306">
        <ele>560</ele>
        <time>2016-05-22T14:38:21Z</time>
      </trkpt>
      <trkpt lat="43.82839" lon="5.40307">
        <ele>560</ele>
        <time>2016-05-22T14:38:27Z</time>
      </trkpt>
      <trkpt lat="43.82844" lon="5.40298">
        <ele>559</ele>
        <time>2016-05-22T14:38:44Z</time>
      </trkpt>
      <trkpt lat="43.82848" lon="5.40293">
        <ele>559</ele>
        <time>2016-05-22T14:38:57Z</time>
      </trkpt>
      <trkpt lat="43.82849" lon="5.40292">
        <ele>559</ele>
        <time>2016-05-22T14:39:07Z</time>
      </trkpt>
      <trkpt lat="43.82847" lon="5.4029">
        <ele>558</ele>
        <time>2016-05-22T14:39:20Z</time>
      </trkpt>
      <trkpt lat="43.8284" lon="5.40296">
        <ele>558</ele>
        <time>2016-05-22T14:39:36Z</time>
      </trkpt>
      <trkpt lat="43.82837" lon="5.40294">
        <ele>558</ele>
        <time>2016-05-22T14:39:52Z</time>
      </trkpt>
      <trkpt lat="43.82838" lon="5.4029">
        <ele>557</ele>
        <time>2016-05-22T14:40:03Z</time>
      </trkpt>
      <trkpt lat="43.82839" lon="5.40285">
        <ele>556</ele>
        <time>2016-05-22T14:40:16Z</time>
      </trkpt>
      <trkpt lat="43.82838" lon="5.40287">
        <ele>556</ele>
        <time>2016-05-22T14:40:32Z</time>
      </trkpt>
      <trkpt lat="43.8284" lon="5.40286">
        <ele>557</ele>
        <time>2016-05-22T14:40:44Z</time>
      </trkpt>
      <trkpt lat="43.82845" lon="5.40289">
        <ele>558</ele>
        <time>2016-05-22T14:40:57Z</time>
      </trkpt>
      <trkpt lat="43.82845" lon="5.4029">
        <ele>558</ele>
        <time>2016-05-22T14:41:08Z</time>
      </trkpt>
      <trkpt lat="43.82838" lon="5.40289">
        <ele>557</ele>
        <time>2016-05-22T14:41:21Z</time>
      </trkpt>
      <trkpt lat="43.82847" lon="5.4029">
        <ele>558</ele>
        <time>2016-05-22T14:41:34Z</time>
      </trkpt>
      <trkpt lat="43.82845" lon="5.40291">
        <ele>558</ele>
        <time>2016-05-22T14:41:50Z</time>
      </trkpt>
      <trkpt lat="43.82842" lon="5.40294">
        <ele>558</ele>
        <time>2016-05-22T14:42:08Z</time>
      </trkpt>
      <trkpt lat="43.82843" lon="5.40291">
        <ele>558</ele>
        <time>2016-05-22T14:42:31Z</time>
      </trkpt>
      <trkpt lat="43.8284" lon="5.40285">
        <ele>556</ele>
        <time>2016-05-22T14:42:43Z</time>
      </trkpt>
      <trkpt lat="43.8284" lon="5.40282">
        <ele>556</ele>
        <time>2016-05-22T14:42:53Z</time>
      </trkpt>
      <trkpt lat="43.82842" lon="5.4028">
        <ele>556</ele>
        <time>2016-05-22T14:43:09Z</time>
      </trkpt>
      <trkpt lat="43.82843" lon="5.40265">
        <ele>553</ele>
        <time>2016-05-22T14:43:22Z</time>
      </trkpt>
      <trkpt lat="43.82844" lon="5.40264">
        <ele>553</ele>
        <time>2016-05-22T14:43:23Z</time>
      </trkpt>
      <trkpt lat="43.82844" lon="5.40252">
        <ele>551</ele>
        <time>2016-05-22T14:43:36Z</time>
      </trkpt>
      <trkpt lat="43.82849" lon="5.40241">
        <ele>550</ele>
        <time>2016-05-22T14:43:49Z</time>
      </trkpt>
      <trkpt lat="43.82853" lon="5.40229">
        <ele>548</ele>
        <time>2016-05-22T14:44:03Z</time>
      </trkpt>
      <trkpt lat="43.82857" lon="5.40217">
        <ele>546</ele>
        <time>2016-05-22T14:44:17Z</time>
      </trkpt>
      <trkpt lat="43.8286" lon="5.40212">
        <ele>546</ele>
        <time>2016-05-22T14:44:34Z</time>
      </trkpt>
      <trkpt lat="43.82866" lon="5.40205">
        <ele>545</ele>
        <time>2016-05-22T14:44:48Z</time>
      </trkpt>
      <trkpt lat="43.82875" lon="5.40198">
        <ele>544</ele>
        <time>2016-05-22T14:45:00Z</time>
      </trkpt>
      <trkpt lat="43.8288" lon="5.40194">
        <ele>543</ele>
        <time>2016-05-22T14:45:13Z</time>
      </trkpt>
      <trkpt lat="43.82883" lon="5.40184">
        <ele>541</ele>
        <time>2016-05-22T14:45:27Z</time>
      </trkpt>
      <trkpt lat="43.82888" lon="5.40176">
        <ele>540</ele>
        <time>2016-05-22T14:45:38Z</time>
      </trkpt>
      <trkpt lat="43.82896" lon="5.40166">
        <ele>539</ele>
        <time>2016-05-22T14:45:53Z</time>
      </trkpt>
      <trkpt lat="43.82907" lon="5.40156">
        <ele>539</ele>
        <time>2016-05-22T14:46:10Z</time>
      </trkpt>
      <trkpt lat="43.82914" lon="5.40146">
        <ele>538</ele>
        <time>2016-05-22T14:46:23Z</time>
      </trkpt>
      <trkpt lat="43.82917" lon="5.40132">
        <ele>535</ele>
        <time>2016-05-22T14:46:36Z</time>
      </trkpt>
      <trkpt lat="43.82919" lon="5.40119">
        <ele>533</ele>
        <time>2016-05-22T14:46:50Z</time>
      </trkpt>
      <trkpt lat="43.82922" lon="5.40109">
        <ele>531</ele>
        <time>2016-05-22T14:47:00Z</time>
      </trkpt>
      <trkpt lat="43.82921" lon="5.40097">
        <ele>529</ele>
        <time>2016-05-22T14:47:13Z</time>
      </trkpt>
      <trkpt lat="43.82925" lon="5.40077">
        <ele>526</ele>
        <time>2016-05-22T14:47:28Z</time>
      </trkpt>
      <trkpt lat="43.82929" lon="5.40066">
        <ele>524</ele>
        <time>2016-05-22T14:47:36Z</time>
      </trkpt>
      <trkpt lat="43.82933" lon="5.40045">
        <ele>522</ele>
        <time>2016-05-22T14:47:50Z</time>
      </trkpt>
      <trkpt lat="43.82933" lon="5.40042">
        <ele>521</ele>
        <time>2016-05-22T14:47:52Z</time>
      </trkpt>
      <trkpt lat="43.82932" lon="5.40035">
        <ele>520</ele>
        <time>2016-05-22T14:47:56Z</time>
      </trkpt>
      <trkpt lat="43.82934" lon="5.4003">
        <ele>520</ele>
        <time>2016-05-22T14:47:59Z</time>
      </trkpt>
      <trkpt lat="43.82941" lon="5.40022">
        <ele>520</ele>
        <time>2016-05-22T14:48:07Z</time>
      </trkpt>
      <trkpt lat="43.82941" lon="5.40018">
        <ele>519</ele>
        <time>2016-05-22T14:48:10Z</time>
      </trkpt>
      <trkpt lat="43.82948" lon="5.40001">
        <ele>518</ele>
        <time>2016-05-22T14:48:25Z</time>
      </trkpt>
      <trkpt lat="43.82955" lon="5.39987">
        <ele>518</ele>
        <time>2016-05-22T14:48:37Z</time>
      </trkpt>
      <trkpt lat="43.8296" lon="5.39973">
        <ele>517</ele>
        <time>2016-05-22T14:48:50Z</time>
      </trkpt>
      <trkpt lat="43.82967" lon="5.3996">
        <ele>515</ele>
        <time>2016-05-22T14:49:03Z</time>
      </trkpt>
      <trkpt lat="43.82969" lon="5.39958">
        <ele>514</ele>
        <time>2016-05-22T14:49:06Z</time>
      </trkpt>
      <trkpt lat="43.8298" lon="5.39944">
        <ele>512</ele>
        <time>2016-05-22T14:49:20Z</time>
      </trkpt>
      <trkpt lat="43.82991" lon="5.39936">
        <ele>512</ele>
        <time>2016-05-22T14:49:36Z</time>
      </trkpt>
      <trkpt lat="43.83001" lon="5.39925">
        <ele>512</ele>
        <time>2016-05-22T14:49:51Z</time>
      </trkpt>
      <trkpt lat="43.83006" lon="5.39922">
        <ele>511</ele>
        <time>2016-05-22T14:49:59Z</time>
      </trkpt>
      <trkpt lat="43.83008" lon="5.3992">
        <ele>511</ele>
        <time>2016-05-22T14:50:01Z</time>
      </trkpt>
      <trkpt lat="43.8302" lon="5.39904">
        <ele>507</ele>
        <time>2016-05-22T14:50:17Z</time>
      </trkpt>
      <trkpt lat="43.8303" lon="5.39888">
        <ele>503</ele>
        <time>2016-05-22T14:50:33Z</time>
      </trkpt>
      <trkpt lat="43.83042" lon="5.39878">
        <ele>503</ele>
        <time>2016-05-22T14:50:49Z</time>
      </trkpt>
      <trkpt lat="43.83054" lon="5.3987">
        <ele>502</ele>
        <time>2016-05-22T14:51:03Z</time>
      </trkpt>
      <trkpt lat="43.83064" lon="5.39861">
        <ele>501</ele>
        <time>2016-05-22T14:51:16Z</time>
      </trkpt>
      <trkpt lat="43.83074" lon="5.39855">
        <ele>499</ele>
        <time>2016-05-22T14:51:27Z</time>
      </trkpt>
      <trkpt lat="43.83087" lon="5.3985">
        <ele>497</ele>
        <time>2016-05-22T14:51:44Z</time>
      </trkpt>
      <trkpt lat="43.83098" lon="5.39841">
        <ele>494</ele>
        <time>2016-05-22T14:51:59Z</time>
      </trkpt>
      <trkpt lat="43.83108" lon="5.39833">
        <ele>491</ele>
        <time>2016-05-22T14:52:12Z</time>
      </trkpt>
      <trkpt lat="43.83117" lon="5.39827">
        <ele>489</ele>
        <time>2016-05-22T14:52:23Z</time>
      </trkpt>
      <trkpt lat="43.83129" lon="5.39814">
        <ele>488</ele>
        <time>2016-05-22T14:52:38Z</time>
      </trkpt>
      <trkpt lat="43.83142" lon="5.39806">
        <ele>487</ele>
        <time>2016-05-22T14:52:52Z</time>
      </trkpt>
      <trkpt lat="43.83148" lon="5.39803">
        <ele>487</ele>
        <time>2016-05-22T14:52:57Z</time>
      </trkpt>
      <trkpt lat="43.83156" lon="5.39799">
        <ele>487</ele>
        <time>2016-05-22T14:53:07Z</time>
      </trkpt>
      <trkpt lat="43.83175" lon="5.39798">
        <ele>484</ele>
        <time>2016-05-22T14:53:25Z</time>
      </trkpt>
      <trkpt lat="43.83187" lon="5.39807">
        <ele>484</ele>
        <time>2016-05-22T14:53:35Z</time>
      </trkpt>
      <trkpt lat="43.83193" lon="5.39801">
        <ele>482</ele>
        <time>2016-05-22T14:53:53Z</time>
      </trkpt>
      <trkpt lat="43.83196" lon="5.39801">
        <ele>481</ele>
        <time>2016-05-22T14:54:01Z</time>
      </trkpt>
      <trkpt lat="43.83194" lon="5.39803">
        <ele>482</ele>
        <time>2016-05-22T14:54:20Z</time>
      </trkpt>
      <trkpt lat="43.83191" lon="5.39813">
        <ele>484</ele>
        <time>2016-05-22T14:54:36Z</time>
      </trkpt>
      <trkpt lat="43.83197" lon="5.3982">
        <ele>485</ele>
        <time>2016-05-22T14:54:45Z</time>
      </trkpt>
      <trkpt lat="43.83206" lon="5.39826">
        <ele>485</ele>
        <time>2016-05-22T14:54:56Z</time>
      </trkpt>
      <trkpt lat="43.83211" lon="5.39831">
        <ele>484</ele>
        <time>2016-05-22T14:55:10Z</time>
      </trkpt>
      <trkpt lat="43.83218" lon="5.39839">
        <ele>481</ele>
        <time>2016-05-22T14:55:23Z</time>
      </trkpt>
      <trkpt lat="43.8322" lon="5.39842">
        <ele>480</ele>
        <time>2016-05-22T14:55:28Z</time>
      </trkpt>
      <trkpt lat="43.83221" lon="5.39848">
        <ele>481</ele>
        <time>2016-05-22T14:55:32Z</time>
      </trkpt>
      <trkpt lat="43.8323" lon="5.3987">
        <ele>480</ele>
        <time>2016-05-22T14:55:49Z</time>
      </trkpt>
      <trkpt lat="43.83235" lon="5.39881">
        <ele>480</ele>
        <time>2016-05-22T14:56:01Z</time>
      </trkpt>
      <trkpt lat="43.83244" lon="5.39891">
        <ele>478</ele>
        <time>2016-05-22T14:56:14Z</time>
      </trkpt>
      <trkpt lat="43.83252" lon="5.39903">
        <ele>478</ele>
        <time>2016-05-22T14:56:29Z</time>
      </trkpt>
      <trkpt lat="43.83262" lon="5.39915">
        <ele>475</ele>
        <time>2016-05-22T14:56:43Z</time>
      </trkpt>
      <trkpt lat="43.83259" lon="5.39907">
        <ele>476</ele>
        <time>2016-05-22T14:56:57Z</time>
      </trkpt>
      <trkpt lat="43.83258" lon="5.39897">
        <ele>474</ele>
        <time>2016-05-22T14:57:08Z</time>
      </trkpt>
      <trkpt lat="43.83258" lon="5.39895">
        <ele>474</ele>
        <time>2016-05-22T14:57:10Z</time>
      </trkpt>
      <trkpt lat="43.83259" lon="5.39881">
        <ele>470</ele>
        <time>2016-05-22T14:57:22Z</time>
      </trkpt>
      <trkpt lat="43.83257" lon="5.39876">
        <ele>469</ele>
        <time>2016-05-22T14:57:27Z</time>
      </trkpt>
      <trkpt lat="43.83256" lon="5.3987">
        <ele>468</ele>
        <time>2016-05-22T14:57:30Z</time>
      </trkpt>
      <trkpt lat="43.83253" lon="5.39855">
        <ele>464</ele>
        <time>2016-05-22T14:57:42Z</time>
      </trkpt>
      <trkpt lat="43.8325" lon="5.39841">
        <ele>462</ele>
        <time>2016-05-22T14:57:55Z</time>
      </trkpt>
      <trkpt lat="43.83248" lon="5.3983">
        <ele>463</ele>
        <time>2016-05-22T14:58:07Z</time>
      </trkpt>
      <trkpt lat="43.83252" lon="5.39817">
        <ele>460</ele>
        <time>2016-05-22T14:58:20Z</time>
      </trkpt>
      <trkpt lat="43.8325" lon="5.3981">
        <ele>461</ele>
        <time>2016-05-22T14:58:25Z</time>
      </trkpt>
      <trkpt lat="43.83244" lon="5.39802">
        <ele>464</ele>
        <time>2016-05-22T14:58:31Z</time>
      </trkpt>
      <trkpt lat="43.8324" lon="5.39798">
        <ele>465</ele>
        <time>2016-05-22T14:58:34Z</time>
      </trkpt>
      <trkpt lat="43.83234" lon="5.39776">
        <ele>465</ele>
        <time>2016-05-22T14:58:49Z</time>
      </trkpt>
      <trkpt lat="43.83233" lon="5.39766">
        <ele>465</ele>
        <time>2016-05-22T14:59:06Z</time>
      </trkpt>
      <trkpt lat="43.83233" lon="5.39765">
        <ele>465</ele>
        <time>2016-05-22T14:59:08Z</time>
      </trkpt>
      <trkpt lat="43.83216" lon="5.39743">
        <ele>467</ele>
        <time>2016-05-22T14:59:25Z</time>
      </trkpt>
      <trkpt lat="43.832" lon="5.39737">
        <ele>470</ele>
        <time>2016-05-22T14:59:41Z</time>
      </trkpt>
      <trkpt lat="43.8319" lon="5.39733">
        <ele>473</ele>
        <time>2016-05-22T14:59:53Z</time>
      </trkpt>
      <trkpt lat="43.83189" lon="5.39725">
        <ele>472</ele>
        <time>2016-05-22T14:59:58Z</time>
      </trkpt>
      <trkpt lat="43.83196" lon="5.39713">
        <ele>469</ele>
        <time>2016-05-22T15:00:11Z</time>
      </trkpt>
      <trkpt lat="43.83204" lon="5.39693">
        <ele>467</ele>
        <time>2016-05-22T15:00:26Z</time>
      </trkpt>
      <trkpt lat="43.83203" lon="5.39674">
        <ele>469</ele>
        <time>2016-05-22T15:00:41Z</time>
      </trkpt>
      <trkpt lat="43.83205" lon="5.39669">
        <ele>468</ele>
        <time>2016-05-22T15:00:55Z</time>
      </trkpt>
      <trkpt lat="43.83207" lon="5.39646">
        <ele>468</ele>
        <time>2016-05-22T15:01:08Z</time>
      </trkpt>
      <trkpt lat="43.83205" lon="5.3964">
        <ele>468</ele>
        <time>2016-05-22T15:01:13Z</time>
      </trkpt>
      <trkpt lat="43.83202" lon="5.39632">
        <ele>468</ele>
        <time>2016-05-22T15:01:19Z</time>
      </trkpt>
      <trkpt lat="43.83202" lon="5.39614">
        <ele>465</ele>
        <time>2016-05-22T15:01:31Z</time>
      </trkpt>
      <trkpt lat="43.83196" lon="5.39592">
        <ele>461</ele>
        <time>2016-05-22T15:01:50Z</time>
      </trkpt>
      <trkpt lat="43.83186" lon="5.3958">
        <ele>462</ele>
        <time>2016-05-22T15:02:04Z</time>
      </trkpt>
      <trkpt lat="43.83177" lon="5.3957">
        <ele>462</ele>
        <time>2016-05-22T15:02:16Z</time>
      </trkpt>
      <trkpt lat="43.83161" lon="5.39556">
        <ele>463</ele>
        <time>2016-05-22T15:02:35Z</time>
      </trkpt>
      <trkpt lat="43.83151" lon="5.39547">
        <ele>463</ele>
        <time>2016-05-22T15:02:49Z</time>
      </trkpt>
      <trkpt lat="43.83132" lon="5.39534">
        <ele>458</ele>
        <time>2016-05-22T15:03:06Z</time>
      </trkpt>
      <trkpt lat="43.83114" lon="5.39527">
        <ele>458</ele>
        <time>2016-05-22T15:03:23Z</time>
      </trkpt>
      <trkpt lat="43.83097" lon="5.3952">
        <ele>461</ele>
        <time>2016-05-22T15:03:41Z</time>
      </trkpt>
      <trkpt lat="43.83087" lon="5.39499">
        <ele>461</ele>
        <time>2016-05-22T15:03:57Z</time>
      </trkpt>
      <trkpt lat="43.83084" lon="5.39481">
        <ele>457</ele>
        <time>2016-05-22T15:04:15Z</time>
      </trkpt>
      <trkpt lat="43.83078" lon="5.39477">
        <ele>457</ele>
        <time>2016-05-22T15:04:20Z</time>
      </trkpt>
      <trkpt lat="43.83072" lon="5.39454">
        <ele>454</ele>
        <time>2016-05-22T15:04:37Z</time>
      </trkpt>
      <trkpt lat="43.83054" lon="5.39444">
        <ele>457</ele>
        <time>2016-05-22T15:04:47Z</time>
      </trkpt>
      <trkpt lat="43.83026" lon="5.39434">
        <ele>459</ele>
        <time>2016-05-22T15:05:05Z</time>
      </trkpt>
      <trkpt lat="43.83016" lon="5.39429">
        <ele>460</ele>
        <time>2016-05-22T15:05:16Z</time>
      </trkpt>
      <trkpt lat="43.83002" lon="5.39417">
        <ele>459</ele>
        <time>2016-05-22T15:05:32Z</time>
      </trkpt>
      <trkpt lat="43.82989" lon="5.39405">
        <ele>458</ele>
        <time>2016-05-22T15:05:48Z</time>
      </trkpt>
      <trkpt lat="43.82987" lon="5.39396">
        <ele>455</ele>
        <time>2016-05-22T15:05:56Z</time>
      </trkpt>
      <trkpt lat="43.82983" lon="5.39389">
        <ele>455</ele>
        <time>2016-05-22T15:06:03Z</time>
      </trkpt>
      <trkpt lat="43.82971" lon="5.39369">
        <ele>456</ele>
        <time>2016-05-22T15:06:21Z</time>
      </trkpt>
      <trkpt lat="43.82964" lon="5.3936">
        <ele>455</ele>
        <time>2016-05-22T15:06:31Z</time>
      </trkpt>
      <trkpt lat="43.82953" lon="5.39345">
        <ele>449</ele>
        <time>2016-05-22T15:06:45Z</time>
      </trkpt>
      <trkpt lat="43.8294" lon="5.39333">
        <ele>451</ele>
        <time>2016-05-22T15:07:01Z</time>
      </trkpt>
      <trkpt lat="43.82939" lon="5.3933">
        <ele>450</ele>
        <time>2016-05-22T15:07:05Z</time>
      </trkpt>
      <trkpt lat="43.82922" lon="5.39302">
        <ele>455</ele>
        <time>2016-05-22T15:07:23Z</time>
      </trkpt>
      <trkpt lat="43.82918" lon="5.39297">
        <ele>455</ele>
        <time>2016-05-22T15:07:29Z</time>
      </trkpt>
      <trkpt lat="43.82911" lon="5.39278">
        <ele>451</ele>
        <time>2016-05-22T15:07:45Z</time>
      </trkpt>
      <trkpt lat="43.8291" lon="5.39266">
        <ele>447</ele>
        <time>2016-05-22T15:07:53Z</time>
      </trkpt>
      <trkpt lat="43.82899" lon="5.39256">
        <ele>451</ele>
        <time>2016-05-22T15:08:05Z</time>
      </trkpt>
      <trkpt lat="43.82898" lon="5.39251">
        <ele>452</ele>
        <time>2016-05-22T15:08:08Z</time>
      </trkpt>
      <trkpt lat="43.82895" lon="5.39242">
        <ele>451</ele>
        <time>2016-05-22T15:08:18Z</time>
      </trkpt>
      <trkpt lat="43.82884" lon="5.39226">
        <ele>452</ele>
        <time>2016-05-22T15:08:36Z</time>
      </trkpt>
      <trkpt lat="43.82872" lon="5.39212">
        <ele>451</ele>
        <time>2016-05-22T15:08:52Z</time>
      </trkpt>
      <trkpt lat="43.82864" lon="5.39195">
        <ele>446</ele>
        <time>2016-05-22T15:09:04Z</time>
      </trkpt>
      <trkpt lat="43.82863" lon="5.39193">
        <ele>446</ele>
        <time>2016-05-22T15:09:06Z</time>
      </trkpt>
      <trkpt lat="43.82854" lon="5.3918">
        <ele>447</ele>
        <time>2016-05-22T15:09:18Z</time>
      </trkpt>
      <trkpt lat="43.82846" lon="5.39166">
        <ele>446</ele>
        <time>2016-05-22T15:09:34Z</time>
      </trkpt>
      <trkpt lat="43.82837" lon="5.39158">
        <ele>445</ele>
        <time>2016-05-22T15:09:51Z</time>
      </trkpt>
      <trkpt lat="43.82836" lon="5.39155">
        <ele>445</ele>
        <time>2016-05-22T15:09:53Z</time>
      </trkpt>
      <trkpt lat="43.82825" lon="5.39138">
        <ele>441</ele>
        <time>2016-05-22T15:10:07Z</time>
      </trkpt>
      <trkpt lat="43.82814" lon="5.39122">
        <ele>445</ele>
        <time>2016-05-22T15:10:22Z</time>
      </trkpt>
      <trkpt lat="43.82811" lon="5.39117">
        <ele>446</ele>
        <time>2016-05-22T15:10:27Z</time>
      </trkpt>
      <trkpt lat="43.82798" lon="5.39108">
        <ele>448</ele>
        <time>2016-05-22T15:10:44Z</time>
      </trkpt>
      <trkpt lat="43.82789" lon="5.39104">
        <ele>450</ele>
        <time>2016-05-22T15:10:56Z</time>
      </trkpt>
      <trkpt lat="43.82771" lon="5.39097">
        <ele>449</ele>
        <time>2016-05-22T15:11:12Z</time>
      </trkpt>
      <trkpt lat="43.82758" lon="5.3909">
        <ele>445</ele>
        <time>2016-05-22T15:11:34Z</time>
      </trkpt>
      <trkpt lat="43.82747" lon="5.39092">
        <ele>446</ele>
        <time>2016-05-22T15:11:50Z</time>
      </trkpt>
      <trkpt lat="43.82744" lon="5.39093">
        <ele>446</ele>
        <time>2016-05-22T15:11:53Z</time>
      </trkpt>
      <trkpt lat="43.82737" lon="5.39098">
        <ele>449</ele>
        <time>2016-05-22T15:12:06Z</time>
      </trkpt>
      <trkpt lat="43.82732" lon="5.39099">
        <ele>450</ele>
        <time>2016-05-22T15:12:24Z</time>
      </trkpt>
      <trkpt lat="43.82721" lon="5.39098">
        <ele>450</ele>
        <time>2016-05-22T15:12:37Z</time>
      </trkpt>
      <trkpt lat="43.82719" lon="5.39098">
        <ele>450</ele>
        <time>2016-05-22T15:12:39Z</time>
      </trkpt>
      <trkpt lat="43.82706" lon="5.39097">
        <ele>451</ele>
        <time>2016-05-22T15:12:53Z</time>
      </trkpt>
      <trkpt lat="43.82694" lon="5.39092">
        <ele>449</ele>
        <time>2016-05-22T15:13:08Z</time>
      </trkpt>
      <trkpt lat="43.82679" lon="5.39091">
        <ele>450</ele>
        <time>2016-05-22T15:13:21Z</time>
      </trkpt>
      <trkpt lat="43.82678" lon="5.3909">
        <ele>450</ele>
        <time>2016-05-22T15:13:22Z</time>
      </trkpt>
      <trkpt lat="43.82667" lon="5.39089">
        <ele>452</ele>
        <time>2016-05-22T15:13:34Z</time>
      </trkpt>
      <trkpt lat="43.82658" lon="5.39089">
        <ele>453</ele>
        <time>2016-05-22T15:13:49Z</time>
      </trkpt>
      <trkpt lat="43.82649" lon="5.39084">
        <ele>452</ele>
        <time>2016-05-22T15:14:04Z</time>
      </trkpt>
      <trkpt lat="43.82635" lon="5.3908">
        <ele>450</ele>
        <time>2016-05-22T15:14:16Z</time>
      </trkpt>
      <trkpt lat="43.8262" lon="5.39084">
        <ele>454</ele>
        <time>2016-05-22T15:14:32Z</time>
      </trkpt>
      <trkpt lat="43.82618" lon="5.39084">
        <ele>454</ele>
        <time>2016-05-22T15:14:35Z</time>
      </trkpt>
      <trkpt lat="43.82604" lon="5.39082">
        <ele>453</ele>
        <time>2016-05-22T15:14:50Z</time>
      </trkpt>
      <trkpt lat="43.826" lon="5.39079">
        <ele>451</ele>
        <time>2016-05-22T15:14:54Z</time>
      </trkpt>
      <trkpt lat="43.82599" lon="5.39078">
        <ele>450</ele>
        <time>2016-05-22T15:14:56Z</time>
      </trkpt>
      <trkpt lat="43.82595" lon="5.39077">
        <ele>449</ele>
        <time>2016-05-22T15:15:00Z</time>
      </trkpt>
      <trkpt lat="43.82589" lon="5.39077">
        <ele>449</ele>
        <time>2016-05-22T15:15:06Z</time>
      </trkpt>
      <trkpt lat="43.82578" lon="5.39075">
        <ele>446</ele>
        <time>2016-05-22T15:15:18Z</time>
      </trkpt>
      <trkpt lat="43.82569" lon="5.39074">
        <ele>445</ele>
        <time>2016-05-22T15:15:30Z</time>
      </trkpt>
      <trkpt lat="43.82554" lon="5.39078">
        <ele>445</ele>
        <time>2016-05-22T15:15:45Z</time>
      </trkpt>
      <trkpt lat="43.82541" lon="5.39084">
        <ele>445</ele>
        <time>2016-05-22T15:15:59Z</time>
      </trkpt>
      <trkpt lat="43.82534" lon="5.3908">
        <ele>442</ele>
        <time>2016-05-22T15:16:13Z</time>
      </trkpt>
      <trkpt lat="43.82533" lon="5.39077">
        <ele>441</ele>
        <time>2016-05-22T15:16:15Z</time>
      </trkpt>
      <trkpt lat="43.82525" lon="5.3906">
        <ele>437</ele>
        <time>2016-05-22T15:16:30Z</time>
      </trkpt>
      <trkpt lat="43.82516" lon="5.39048">
        <ele>437</ele>
        <time>2016-05-22T15:16:44Z</time>
      </trkpt>
      <trkpt lat="43.82511" lon="5.3904">
        <ele>436</ele>
        <time>2016-05-22T15:16:50Z</time>
      </trkpt>
      <trkpt lat="43.8251" lon="5.39039">
        <ele>437</ele>
        <time>2016-05-22T15:16:51Z</time>
      </trkpt>
      <trkpt lat="43.82499" lon="5.39026">
        <ele>439</ele>
        <time>2016-05-22T15:17:07Z</time>
      </trkpt>
      <trkpt lat="43.82499" lon="5.39026">
        <ele>439</ele>
        <time>2016-05-22T15:17:08Z</time>
      </trkpt>
      <trkpt lat="43.8249" lon="5.39019">
        <ele>441</ele>
        <time>2016-05-22T15:17:22Z</time>
      </trkpt>
      <trkpt lat="43.82482" lon="5.3901">
        <ele>440</ele>
        <time>2016-05-22T15:17:38Z</time>
      </trkpt>
      <trkpt lat="43.82474" lon="5.38998">
        <ele>438</ele>
        <time>2016-05-22T15:17:48Z</time>
      </trkpt>
      <trkpt lat="43.82469" lon="5.38993">
        <ele>436</ele>
        <time>2016-05-22T15:17:54Z</time>
      </trkpt>
      <trkpt lat="43.82461" lon="5.38979">
        <ele>436</ele>
        <time>2016-05-22T15:18:06Z</time>
      </trkpt>
      <trkpt lat="43.82451" lon="5.38966">
        <ele>437</ele>
        <time>2016-05-22T15:18:18Z</time>
      </trkpt>
      <trkpt lat="43.82444" lon="5.38959">
        <ele>438</ele>
        <time>2016-05-22T15:18:26Z</time>
      </trkpt>
      <trkpt lat="43.82432" lon="5.38949">
        <ele>438</ele>
        <time>2016-05-22T15:18:39Z</time>
      </trkpt>
      <trkpt lat="43.82435" lon="5.38925">
        <ele>432</ele>
        <time>2016-05-22T15:18:58Z</time>
      </trkpt>
      <trkpt lat="43.82413" lon="5.38917">
        <ele>433</ele>
        <time>2016-05-22T15:19:14Z</time>
      </trkpt>
      <trkpt lat="43.82409" lon="5.38913">
        <ele>434</ele>
        <time>2016-05-22T15:19:17Z</time>
      </trkpt>
      <trkpt lat="43.82399" lon="5.38904">
        <ele>434</ele>
        <time>2016-05-22T15:19:33Z</time>
      </trkpt>
      <trkpt lat="43.82386" lon="5.38898">
        <ele>435</ele>
        <time>2016-05-22T15:19:49Z</time>
      </trkpt>
      <trkpt lat="43.82382" lon="5.38896">
        <ele>435</ele>
        <time>2016-05-22T15:19:53Z</time>
      </trkpt>
      <trkpt lat="43.82365" lon="5.38887">
        <ele>434</ele>
        <time>2016-05-22T15:20:09Z</time>
      </trkpt>
      <trkpt lat="43.82358" lon="5.38883">
        <ele>434</ele>
        <time>2016-05-22T15:20:21Z</time>
      </trkpt>
      <trkpt lat="43.82345" lon="5.38877">
        <ele>434</ele>
        <time>2016-05-22T15:20:36Z</time>
      </trkpt>
      <trkpt lat="43.82332" lon="5.38872">
        <ele>435</ele>
        <time>2016-05-22T15:20:48Z</time>
      </trkpt>
      <trkpt lat="43.82317" lon="5.38865">
        <ele>434</ele>
        <time>2016-05-22T15:21:02Z</time>
      </trkpt>
      <trkpt lat="43.82309" lon="5.38862">
        <ele>434</ele>
        <time>2016-05-22T15:21:11Z</time>
      </trkpt>
      <trkpt lat="43.82294" lon="5.3886">
        <ele>434</ele>
        <time>2016-05-22T15:21:26Z</time>
      </trkpt>
      <trkpt lat="43.82286" lon="5.38862">
        <ele>434</ele>
        <time>2016-05-22T15:21:41Z</time>
      </trkpt>
      <trkpt lat="43.82275" lon="5.38863">
        <ele>435</ele>
        <time>2016-05-22T15:21:56Z</time>
      </trkpt>
      <trkpt lat="43.8227" lon="5.38863">
        <ele>435</ele>
        <time>2016-05-22T15:22:09Z</time>
      </trkpt>
      <trkpt lat="43.82264" lon="5.38858">
        <ele>434</ele>
        <time>2016-05-22T15:22:21Z</time>
      </trkpt>
      <trkpt lat="43.82259" lon="5.38849">
        <ele>433</ele>
        <time>2016-05-22T15:22:36Z</time>
      </trkpt>
      <trkpt lat="43.82259" lon="5.38839">
        <ele>432</ele>
        <time>2016-05-22T15:22:50Z</time>
      </trkpt>
      <trkpt lat="43.82258" lon="5.38834">
        <ele>431</ele>
        <time>2016-05-22T15:23:09Z</time>
      </trkpt>
      <trkpt lat="43.82254" lon="5.38828">
        <ele>431</ele>
        <time>2016-05-22T15:23:35Z</time>
      </trkpt>
      <trkpt lat="43.82252" lon="5.38825">
        <ele>430</ele>
        <time>2016-05-22T15:24:07Z</time>
      </trkpt>
      <trkpt lat="43.82257" lon="5.38828">
        <ele>431</ele>
        <time>2016-05-22T15:24:30Z</time>
      </trkpt>
      <trkpt lat="43.82261" lon="5.3883">
        <ele>431</ele>
        <time>2016-05-22T15:24:56Z</time>
      </trkpt>
      <trkpt lat="43.82259" lon="5.38827">
        <ele>430</ele>
        <time>2016-05-22T15:25:21Z</time>
      </trkpt>
      <trkpt lat="43.82259" lon="5.38829">
        <ele>431</ele>
        <time>2016-05-22T15:25:38Z</time>
      </trkpt>
      <trkpt lat="43.8226" lon="5.38827">
        <ele>430</ele>
        <time>2016-05-22T15:26:00Z</time>
      </trkpt>
      <trkpt lat="43.82265" lon="5.38823">
        <ele>430</ele>
        <time>2016-05-22T15:26:15Z</time>
      </trkpt>
      <trkpt lat="43.8227" lon="5.38811">
        <ele>428</ele>
        <time>2016-05-22T15:26:29Z</time>
      </trkpt>
      <trkpt lat="43.82276" lon="5.38802">
        <ele>427</ele>
        <time>2016-05-22T15:26:41Z</time>
      </trkpt>
      <trkpt lat="43.82292" lon="5.38794">
        <ele>426</ele>
        <time>2016-05-22T15:26:57Z</time>
      </trkpt>
      <trkpt lat="43.82302" lon="5.38789">
        <ele>425</ele>
        <time>2016-05-22T15:27:11Z</time>
      </trkpt>
      <trkpt lat="43.82306" lon="5.38788">
        <ele>424</ele>
        <time>2016-05-22T15:27:23Z</time>
      </trkpt>
      <trkpt lat="43.82315" lon="5.38783">
        <ele>424</ele>
        <time>2016-05-22T15:27:37Z</time>
      </trkpt>
      <trkpt lat="43.82324" lon="5.38782">
        <ele>423</ele>
        <time>2016-05-22T15:27:50Z</time>
      </trkpt>
      <trkpt lat="43.82321" lon="5.38777">
        <ele>424</ele>
        <time>2016-05-22T15:28:04Z</time>
      </trkpt>
      <trkpt lat="43.82316" lon="5.38768">
        <ele>424</ele>
        <time>2016-05-22T15:28:15Z</time>
      </trkpt>
      <trkpt lat="43.82309" lon="5.38753">
        <ele>423</ele>
        <time>2016-05-22T15:28:31Z</time>
      </trkpt>
      <trkpt lat="43.82307" lon="5.38732">
        <ele>422</ele>
        <time>2016-05-22T15:28:43Z</time>
      </trkpt>
      <trkpt lat="43.82313" lon="5.38736">
        <ele>423</ele>
        <time>2016-05-22T15:28:59Z</time>
      </trkpt>
      <trkpt lat="43.82324" lon="5.38736">
        <ele>426</ele>
        <time>2016-05-22T15:29:14Z</time>
      </trkpt>
      <trkpt lat="43.82332" lon="5.38742">
        <ele>427</ele>
        <time>2016-05-22T15:29:27Z</time>
      </trkpt>
      <trkpt lat="43.82341" lon="5.38748">
        <ele>428</ele>
        <time>2016-05-22T15:29:42Z</time>
      </trkpt>
      <trkpt lat="43.82351" lon="5.38757">
        <ele>430</ele>
        <time>2016-05-22T15:30:00Z</time>
      </trkpt>
      <trkpt lat="43.82361" lon="5.38763">
        <ele>431</ele>
        <time>2016-05-22T15:30:14Z</time>
      </trkpt>
      <trkpt lat="43.82367" lon="5.38771">
        <ele>431</ele>
        <time>2016-05-22T15:30:28Z</time>
      </trkpt>
      <trkpt lat="43.82376" lon="5.3878">
        <ele>430</ele>
        <time>2016-05-22T15:30:43Z</time>
      </trkpt>
      <trkpt lat="43.82384" lon="5.38789">
        <ele>429</ele>
        <time>2016-05-22T15:31:00Z</time>
      </trkpt>
      <trkpt lat="43.82391" lon="5.38799">
        <ele>430</ele>
        <time>2016-05-22T15:31:14Z</time>
      </trkpt>
      <trkpt lat="43.82398" lon="5.38806">
        <ele>434</ele>
        <time>2016-05-22T15:31:27Z</time>
      </trkpt>
      <trkpt lat="43.82409" lon="5.38818">
        <ele>438</ele>
        <time>2016-05-22T15:31:44Z</time>
      </trkpt>
      <trkpt lat="43.82417" lon="5.38828">
        <ele>440</ele>
        <time>2016-05-22T15:31:55Z</time>
      </trkpt>
      <trkpt lat="43.82421" lon="5.38833">
        <ele>440</ele>
        <time>2016-05-22T15:32:00Z</time>
      </trkpt>
      <trkpt lat="43.8243" lon="5.38848">
        <ele>439</ele>
        <time>2016-05-22T15:32:17Z</time>
      </trkpt>
      <trkpt lat="43.82441" lon="5.38863">
        <ele>440</ele>
        <time>2016-05-22T15:32:35Z</time>
      </trkpt>
      <trkpt lat="43.82452" lon="5.38868">
        <ele>445</ele>
        <time>2016-05-22T15:32:49Z</time>
      </trkpt>
      <trkpt lat="43.82448" lon="5.38879">
        <ele>441</ele>
        <time>2016-05-22T15:33:14Z</time>
      </trkpt>
      <trkpt lat="43.82444" lon="5.38874">
        <ele>440</ele>
        <time>2016-05-22T15:33:27Z</time>
      </trkpt>
      <trkpt lat="43.82438" lon="5.38876">
        <ele>436</ele>
        <time>2016-05-22T15:33:51Z</time>
      </trkpt>
      <trkpt lat="43.82446" lon="5.38877">
        <ele>440</ele>
        <time>2016-05-22T15:34:07Z</time>
      </trkpt>
      <trkpt lat="43.82453" lon="5.38874">
        <ele>445</ele>
        <time>2016-05-22T15:34:28Z</time>
      </trkpt>
      <trkpt lat="43.82459" lon="5.38881">
        <ele>446</ele>
        <time>2016-05-22T15:34:44Z</time>
      </trkpt>
      <trkpt lat="43.82469" lon="5.38878">
        <ele>452</ele>
        <time>2016-05-22T15:35:00Z</time>
      </trkpt>
      <trkpt lat="43.82475" lon="5.38881">
        <ele>453</ele>
        <time>2016-05-22T15:35:13Z</time>
      </trkpt>
      <trkpt lat="43.82485" lon="5.38885">
        <ele>455</ele>
        <time>2016-05-22T15:35:26Z</time>
      </trkpt>
      <trkpt lat="43.82488" lon="5.38889">
        <ele>455</ele>
        <time>2016-05-22T15:35:38Z</time>
      </trkpt>
      <trkpt lat="43.82483" lon="5.38892">
        <ele>452</ele>
        <time>2016-05-22T15:35:52Z</time>
      </trkpt>
      <trkpt lat="43.82485" lon="5.38884">
        <ele>455</ele>
        <time>2016-05-22T15:36:06Z</time>
      </trkpt>
      <trkpt lat="43.8248" lon="5.38878">
        <ele>456</ele>
        <time>2016-05-22T15:36:19Z</time>
      </trkpt>
      <trkpt lat="43.82484" lon="5.38874">
        <ele>459</ele>
        <time>2016-05-22T15:36:31Z</time>
      </trkpt>
      <trkpt lat="43.8249" lon="5.3887">
        <ele>463</ele>
        <time>2016-05-22T15:36:46Z</time>
      </trkpt>
      <trkpt lat="43.825" lon="5.38872">
        <ele>466</ele>
        <time>2016-05-22T15:37:02Z</time>
      </trkpt>
      <trkpt lat="43.82506" lon="5.38876">
        <ele>467</ele>
        <time>2016-05-22T15:37:15Z</time>
      </trkpt>
      <trkpt lat="43.82513" lon="5.38886">
        <ele>466</ele>
        <time>2016-05-22T15:37:31Z</time>
      </trkpt>
      <trkpt lat="43.8252" lon="5.38893">
        <ele>467</ele>
        <time>2016-05-22T15:37:45Z</time>
      </trkpt>
      <trkpt lat="43.82526" lon="5.38897">
        <ele>468</ele>
        <time>2016-05-22T15:37:57Z</time>
      </trkpt>
      <trkpt lat="43.82529" lon="5.38908">
        <ele>467</ele>
        <time>2016-05-22T15:38:12Z</time>
      </trkpt>
      <trkpt lat="43.82534" lon="5.38913">
        <ele>468</ele>
        <time>2016-05-22T15:38:27Z</time>
      </trkpt>
      <trkpt lat="43.82532" lon="5.38907">
        <ele>468</ele>
        <time>2016-05-22T15:38:41Z</time>
      </trkpt>
      <trkpt lat="43.8253" lon="5.38897">
        <ele>470</ele>
        <time>2016-05-22T15:38:56Z</time>
      </trkpt>
      <trkpt lat="43.82536" lon="5.38895">
        <ele>473</ele>
        <time>2016-05-22T15:39:10Z</time>
      </trkpt>
      <trkpt lat="43.82544" lon="5.38899">
        <ele>476</ele>
        <time>2016-05-22T15:39:22Z</time>
      </trkpt>
      <trkpt lat="43.82546" lon="5.38906">
        <ele>475</ele>
        <time>2016-05-22T15:39:35Z</time>
      </trkpt>
      <trkpt lat="43.82549" lon="5.38907">
        <ele>476</ele>
        <time>2016-05-22T15:39:49Z</time>
      </trkpt>
      <trkpt lat="43.82549" lon="5.38909">
        <ele>476</ele>
        <time>2016-05-22T15:40:05Z</time>
      </trkpt>
      <trkpt lat="43.82551" lon="5.38913">
        <ele>476</ele>
        <time>2016-05-22T15:40:21Z</time>
      </trkpt>
      <trkpt lat="43.82554" lon="5.38915">
        <ele>477</ele>
        <time>2016-05-22T15:40:35Z</time>
      </trkpt>
      <trkpt lat="43.82553" lon="5.38923">
        <ele>475</ele>
        <time>2016-05-22T15:40:47Z</time>
      </trkpt>
      <trkpt lat="43.82556" lon="5.38932">
        <ele>475</ele>
        <time>2016-05-22T15:40:59Z</time>
      </trkpt>
      <trkpt lat="43.82555" lon="5.3893">
        <ele>474</ele>
        <time>2016-05-22T15:41:15Z</time>
      </trkpt>
      <trkpt lat="43.82553" lon="5.38927">
        <ele>474</ele>
        <time>2016-05-22T15:41:28Z</time>
      </trkpt>
      <trkpt lat="43.82553" lon="5.3893">
        <ele>474</ele>
        <time>2016-05-22T15:41:31Z</time>
      </trkpt>
      <trkpt lat="43.82556" lon="5.38934">
        <ele>474</ele>
        <time>2016-05-22T15:41:46Z</time>
      </trkpt>
      <trkpt lat="43.82557" lon="5.38932">
        <ele>475</ele>
        <time>2016-05-22T15:42:02Z</time>
      </trkpt>
      <trkpt lat="43.82558" lon="5.38938">
        <ele>473</ele>
        <time>2016-05-22T15:42:38Z</time>
      </trkpt>
      <trkpt lat="43.82558" lon="5.38927">
        <ele>476</ele>
        <time>2016-05-22T15:42:58Z</time>
      </trkpt>
      <trkpt lat="43.82557" lon="5.38916">
        <ele>478</ele>
        <time>2016-05-22T15:43:11Z</time>
      </trkpt>
      <trkpt lat="43.82555" lon="5.38913">
        <ele>478</ele>
        <time>2016-05-22T15:43:14Z</time>
      </trkpt>
      <trkpt lat="43.82555" lon="5.38907">
        <ele>479</ele>
        <time>2016-05-22T15:43:19Z</time>
      </trkpt>
      <trkpt lat="43.8255" lon="5.38903">
        <ele>478</ele>
        <time>2016-05-22T15:43:31Z</time>
      </trkpt>
      <trkpt lat="43.82545" lon="5.38893">
        <ele>477</ele>
        <time>2016-05-22T15:43:44Z</time>
      </trkpt>
      <trkpt lat="43.82541" lon="5.38885">
        <ele>478</ele>
        <time>2016-05-22T15:43:56Z</time>
      </trkpt>
      <trkpt lat="43.82538" lon="5.38876">
        <ele>479</ele>
        <time>2016-05-22T15:44:09Z</time>
      </trkpt>
      <trkpt lat="43.82538" lon="5.38874">
        <ele>479</ele>
        <time>2016-05-22T15:44:23Z</time>
      </trkpt>
      <trkpt lat="43.82547" lon="5.38868">
        <ele>484</ele>
        <time>2016-05-22T15:44:37Z</time>
      </trkpt>
      <trkpt lat="43.82552" lon="5.38872">
        <ele>485</ele>
        <time>2016-05-22T15:44:49Z</time>
      </trkpt>
      <trkpt lat="43.82561" lon="5.38885">
        <ele>485</ele>
        <time>2016-05-22T15:45:03Z</time>
      </trkpt>
      <trkpt lat="43.82568" lon="5.38896">
        <ele>486</ele>
        <time>2016-05-22T15:45:14Z</time>
      </trkpt>
      <trkpt lat="43.82576" lon="5.38912">
        <ele>487</ele>
        <time>2016-05-22T15:45:27Z</time>
      </trkpt>
      <trkpt lat="43.8258" lon="5.3892">
        <ele>487</ele>
        <time>2016-05-22T15:45:34Z</time>
      </trkpt>
      <trkpt lat="43.8258" lon="5.38918">
        <ele>488</ele>
        <time>2016-05-22T15:45:48Z</time>
      </trkpt>
      <trkpt lat="43.82586" lon="5.38909">
        <ele>491</ele>
        <time>2016-05-22T15:46:06Z</time>
      </trkpt>
      <trkpt lat="43.82586" lon="5.38903">
        <ele>492</ele>
        <time>2016-05-22T15:46:22Z</time>
      </trkpt>
      <trkpt lat="43.82583" lon="5.38892">
        <ele>492</ele>
        <time>2016-05-22T15:46:36Z</time>
      </trkpt>
      <trkpt lat="43.82581" lon="5.3888">
        <ele>494</ele>
        <time>2016-05-22T15:46:49Z</time>
      </trkpt>
      <trkpt lat="43.82574" lon="5.38872">
        <ele>492</ele>
        <time>2016-05-22T15:47:07Z</time>
      </trkpt>
      <trkpt lat="43.82564" lon="5.38873">
        <ele>489</ele>
        <time>2016-05-22T15:47:23Z</time>
      </trkpt>
      <trkpt lat="43.82554" lon="5.38864">
        <ele>487</ele>
        <time>2016-05-22T15:47:39Z</time>
      </trkpt>
      <trkpt lat="43.82544" lon="5.38859">
        <ele>485</ele>
        <time>2016-05-22T15:47:53Z</time>
      </trkpt>
      <trkpt lat="43.82535" lon="5.38858">
        <ele>482</ele>
        <time>2016-05-22T15:48:05Z</time>
      </trkpt>
      <trkpt lat="43.8252" lon="5.3885">
        <ele>480</ele>
        <time>2016-05-22T15:48:22Z</time>
      </trkpt>
      <trkpt lat="43.82506" lon="5.3884">
        <ele>479</ele>
        <time>2016-05-22T15:48:36Z</time>
      </trkpt>
      <trkpt lat="43.82503" lon="5.38837">
        <ele>480</ele>
        <time>2016-05-22T15:48:45Z</time>
      </trkpt>
      <trkpt lat="43.82496" lon="5.38818">
        <ele>485</ele>
        <time>2016-05-22T15:49:00Z</time>
      </trkpt>
      <trkpt lat="43.82485" lon="5.38815">
        <ele>484</ele>
        <time>2016-05-22T15:49:15Z</time>
      </trkpt>
      <trkpt lat="43.82479" lon="5.38814">
        <ele>483</ele>
        <time>2016-05-22T15:49:31Z</time>
      </trkpt>
      <trkpt lat="43.82476" lon="5.38807">
        <ele>486</ele>
        <time>2016-05-22T15:49:47Z</time>
      </trkpt>
      <trkpt lat="43.82471" lon="5.38795">
        <ele>487</ele>
        <time>2016-05-22T15:50:02Z</time>
      </trkpt>
      <trkpt lat="43.82468" lon="5.38785">
        <ele>486</ele>
        <time>2016-05-22T15:50:11Z</time>
      </trkpt>
      <trkpt lat="43.82464" lon="5.38776">
        <ele>485</ele>
        <time>2016-05-22T15:50:20Z</time>
      </trkpt>
      <trkpt lat="43.82465" lon="5.38753">
        <ele>489</ele>
        <time>2016-05-22T15:50:33Z</time>
      </trkpt>
      <trkpt lat="43.82458" lon="5.38745">
        <ele>487</ele>
        <time>2016-05-22T15:50:49Z</time>
      </trkpt>
      <trkpt lat="43.8245" lon="5.38738">
        <ele>485</ele>
        <time>2016-05-22T15:51:02Z</time>
      </trkpt>
      <trkpt lat="43.82448" lon="5.38737">
        <ele>484</ele>
        <time>2016-05-22T15:51:05Z</time>
      </trkpt>
      <trkpt lat="43.82442" lon="5.38727">
        <ele>483</ele>
        <time>2016-05-22T15:51:19Z</time>
      </trkpt>
      <trkpt lat="43.82438" lon="5.38709">
        <ele>484</ele>
        <time>2016-05-22T15:51:34Z</time>
      </trkpt>
      <trkpt lat="43.82427" lon="5.38693">
        <ele>481</ele>
        <time>2016-05-22T15:51:51Z</time>
      </trkpt>
      <trkpt lat="43.82426" lon="5.38666">
        <ele>484</ele>
        <time>2016-05-22T15:52:09Z</time>
      </trkpt>
      <trkpt lat="43.82425" lon="5.38662">
        <ele>484</ele>
        <time>2016-05-22T15:52:26Z</time>
      </trkpt>
      <trkpt lat="43.82425" lon="5.38656">
        <ele>484</ele>
        <time>2016-05-22T15:52:43Z</time>
      </trkpt>
      <trkpt lat="43.82423" lon="5.38645">
        <ele>485</ele>
        <time>2016-05-22T15:52:59Z</time>
      </trkpt>
      <trkpt lat="43.82421" lon="5.38628">
        <ele>485</ele>
        <time>2016-05-22T15:53:17Z</time>
      </trkpt>
      <trkpt lat="43.82424" lon="5.38617">
        <ele>488</ele>
        <time>2016-05-22T15:53:31Z</time>
      </trkpt>
      <trkpt lat="43.82426" lon="5.38613">
        <ele>490</ele>
        <time>2016-05-22T15:53:49Z</time>
      </trkpt>
      <trkpt lat="43.82426" lon="5.38606">
        <ele>491</ele>
        <time>2016-05-22T15:54:08Z</time>
      </trkpt>
      <trkpt lat="43.82416" lon="5.38596">
        <ele>487</ele>
        <time>2016-05-22T15:54:23Z</time>
      </trkpt>
      <trkpt lat="43.82404" lon="5.38583">
        <ele>485</ele>
        <time>2016-05-22T15:54:41Z</time>
      </trkpt>
      <trkpt lat="43.82398" lon="5.38569">
        <ele>487</ele>
        <time>2016-05-22T15:54:55Z</time>
      </trkpt>
      <trkpt lat="43.8239" lon="5.3856">
        <ele>488</ele>
        <time>2016-05-22T15:55:10Z</time>
      </trkpt>
      <trkpt lat="43.82383" lon="5.38552">
        <ele>484</ele>
        <time>2016-05-22T15:55:22Z</time>
      </trkpt>
      <trkpt lat="43.82375" lon="5.38541">
        <ele>476</ele>
        <time>2016-05-22T15:55:39Z</time>
      </trkpt>
      <trkpt lat="43.82373" lon="5.38534">
        <ele>475</ele>
        <time>2016-05-22T15:56:03Z</time>
      </trkpt>
      <trkpt lat="43.82374" lon="5.38532">
        <ele>476</ele>
        <time>2016-05-22T15:56:22Z</time>
      </trkpt>
      <trkpt lat="43.82376" lon="5.38525">
        <ele>480</ele>
        <time>2016-05-22T15:56:39Z</time>
      </trkpt>
      <trkpt lat="43.82378" lon="5.38518">
        <ele>484</ele>
        <time>2016-05-22T15:56:45Z</time>
      </trkpt>
      <trkpt lat="43.82376" lon="5.38507">
        <ele>483</ele>
        <time>2016-05-22T15:56:57Z</time>
      </trkpt>
      <trkpt lat="43.82371" lon="5.38494">
        <ele>482</ele>
        <time>2016-05-22T15:57:13Z</time>
      </trkpt>
      <trkpt lat="43.82364" lon="5.38476">
        <ele>479</ele>
        <time>2016-05-22T15:57:30Z</time>
      </trkpt>
      <trkpt lat="43.82357" lon="5.38459">
        <ele>478</ele>
        <time>2016-05-22T15:57:44Z</time>
      </trkpt>
      <trkpt lat="43.82351" lon="5.38449">
        <ele>477</ele>
        <time>2016-05-22T15:57:54Z</time>
      </trkpt>
      <trkpt lat="43.82337" lon="5.3843">
        <ele>469</ele>
        <time>2016-05-22T15:58:12Z</time>
      </trkpt>
      <trkpt lat="43.82332" lon="5.38423">
        <ele>466</ele>
        <time>2016-05-22T15:58:20Z</time>
      </trkpt>
      <trkpt lat="43.82324" lon="5.38415">
        <ele>461</ele>
        <time>2016-05-22T15:58:36Z</time>
      </trkpt>
      <trkpt lat="43.8232" lon="5.38395">
        <ele>464</ele>
        <time>2016-05-22T15:59:05Z</time>
      </trkpt>
      <trkpt lat="43.82321" lon="5.38385">
        <ele>469</ele>
        <time>2016-05-22T15:59:11Z</time>
      </trkpt>
      <trkpt lat="43.82323" lon="5.38376">
        <ele>473</ele>
        <time>2016-05-22T15:59:31Z</time>
      </trkpt>
      <trkpt lat="43.82324" lon="5.38373">
        <ele>475</ele>
        <time>2016-05-22T15:59:52Z</time>
      </trkpt>
      <trkpt lat="43.82321" lon="5.38373">
        <ele>473</ele>
        <time>2016-05-22T16:00:05Z</time>
      </trkpt>
      <trkpt lat="43.82321" lon="5.38369">
        <ele>475</ele>
        <time>2016-05-22T16:00:26Z</time>
      </trkpt>
      <trkpt lat="43.82322" lon="5.3837">
        <ele>475</ele>
        <time>2016-05-22T16:00:40Z</time>
      </trkpt>
      <trkpt lat="43.82323" lon="5.38368">
        <ele>475</ele>
        <time>2016-05-22T16:00:55Z</time>
      </trkpt>
      <trkpt lat="43.82322" lon="5.38365">
        <ele>476</ele>
        <time>2016-05-22T16:01:03Z</time>
      </trkpt>
      <trkpt lat="43.82316" lon="5.38353">
        <ele>477</ele>
        <time>2016-05-22T16:01:15Z</time>
      </trkpt>
      <trkpt lat="43.82319" lon="5.38338">
        <ele>482</ele>
        <time>2016-05-22T16:01:30Z</time>
      </trkpt>
      <trkpt lat="43.82322" lon="5.38328">
        <ele>486</ele>
        <time>2016-05-22T16:01:46Z</time>
      </trkpt>
      <trkpt lat="43.82327" lon="5.38323">
        <ele>490</ele>
        <time>2016-05-22T16:01:55Z</time>
      </trkpt>
      <trkpt lat="43.82333" lon="5.3832">
        <ele>492</ele>
        <time>2016-05-22T16:01:59Z</time>
      </trkpt>
      <trkpt lat="43.82355" lon="5.38309">
        <ele>501</ele>
        <time>2016-05-22T16:02:18Z</time>
      </trkpt>
      <trkpt lat="43.82368" lon="5.38301">
        <ele>506</ele>
        <time>2016-05-22T16:02:34Z</time>
      </trkpt>
      <trkpt lat="43.82369" lon="5.38299">
        <ele>506</ele>
        <time>2016-05-22T16:02:38Z</time>
      </trkpt>
      <trkpt lat="43.82371" lon="5.38298">
        <ele>507</ele>
        <time>2016-05-22T16:02:40Z</time>
      </trkpt>
      <trkpt lat="43.82387" lon="5.38292">
        <ele>512</ele>
        <time>2016-05-22T16:02:56Z</time>
      </trkpt>
      <trkpt lat="43.82402" lon="5.38284">
        <ele>516</ele>
        <time>2016-05-22T16:03:12Z</time>
      </trkpt>
      <trkpt lat="43.82406" lon="5.38281">
        <ele>516</ele>
        <time>2016-05-22T16:03:26Z</time>
      </trkpt>
      <trkpt lat="43.82408" lon="5.38278">
        <ele>516</ele>
        <time>2016-05-22T16:03:41Z</time>
      </trkpt>
      <trkpt lat="43.82413" lon="5.38271">
        <ele>517</ele>
        <time>2016-05-22T16:03:56Z</time>
      </trkpt>
      <trkpt lat="43.82417" lon="5.38269">
        <ele>518</ele>
        <time>2016-05-22T16:04:03Z</time>
      </trkpt>
      <trkpt lat="43.82424" lon="5.38268">
        <ele>518</ele>
        <time>2016-05-22T16:04:16Z</time>
      </trkpt>
      <trkpt lat="43.82429" lon="5.38264">
        <ele>519</ele>
        <time>2016-05-22T16:04:30Z</time>
      </trkpt>
      <trkpt lat="43.82429" lon="5.38261">
        <ele>519</ele>
        <time>2016-05-22T16:04:47Z</time>
      </trkpt>
      <trkpt lat="43.82427" lon="5.38256">
        <ele>519</ele>
        <time>2016-05-22T16:04:56Z</time>
      </trkpt>
      <trkpt lat="43.82423" lon="5.38242">
        <ele>519</ele>
        <time>2016-05-22T16:05:07Z</time>
      </trkpt>
      <trkpt lat="43.82418" lon="5.38222">
        <ele>519</ele>
        <time>2016-05-22T16:05:22Z</time>
      </trkpt>
      <trkpt lat="43.82413" lon="5.38201">
        <ele>519</ele>
        <time>2016-05-22T16:05:37Z</time>
      </trkpt>
      <trkpt lat="43.8241" lon="5.38191">
        <ele>519</ele>
        <time>2016-05-22T16:05:45Z</time>
      </trkpt>
      <trkpt lat="43.82403" lon="5.3817">
        <ele>519</ele>
        <time>2016-05-22T16:06:01Z</time>
      </trkpt>
      <trkpt lat="43.82394" lon="5.38148">
        <ele>517</ele>
        <time>2016-05-22T16:06:18Z</time>
      </trkpt>
      <trkpt lat="43.82387" lon="5.38125">
        <ele>516</ele>
        <time>2016-05-22T16:06:34Z</time>
      </trkpt>
      <trkpt lat="43.82379" lon="5.38104">
        <ele>515</ele>
        <time>2016-05-22T16:06:51Z</time>
      </trkpt>
      <trkpt lat="43.82367" lon="5.38085">
        <ele>513</ele>
        <time>2016-05-22T16:07:09Z</time>
      </trkpt>
      <trkpt lat="43.82358" lon="5.38069">
        <ele>511</ele>
        <time>2016-05-22T16:07:25Z</time>
      </trkpt>
      <trkpt lat="43.82355" lon="5.38063">
        <ele>511</ele>
        <time>2016-05-22T16:07:31Z</time>
      </trkpt>
      <trkpt lat="43.82343" lon="5.38046">
        <ele>509</ele>
        <time>2016-05-22T16:07:47Z</time>
      </trkpt>
      <trkpt lat="43.82336" lon="5.38032">
        <ele>508</ele>
        <time>2016-05-22T16:08:00Z</time>
      </trkpt>
      <trkpt lat="43.82334" lon="5.38026">
        <ele>507</ele>
        <time>2016-05-22T16:08:05Z</time>
      </trkpt>
      <trkpt lat="43.8233" lon="5.38002">
        <ele>507</ele>
        <time>2016-05-22T16:08:23Z</time>
      </trkpt>
      <trkpt lat="43.82322" lon="5.37984">
        <ele>506</ele>
        <time>2016-05-22T16:08:41Z</time>
      </trkpt>
      <trkpt lat="43.82318" lon="5.37981">
        <ele>505</ele>
        <time>2016-05-22T16:08:45Z</time>
      </trkpt>
      <trkpt lat="43.82312" lon="5.37981">
        <ele>504</ele>
        <time>2016-05-22T16:08:52Z</time>
      </trkpt>
      <trkpt lat="43.82296" lon="5.37986">
        <ele>503</ele>
        <time>2016-05-22T16:09:07Z</time>
      </trkpt>
      <trkpt lat="43.82275" lon="5.37991">
        <ele>500</ele>
        <time>2016-05-22T16:09:25Z</time>
      </trkpt>
      <trkpt lat="43.82268" lon="5.37993">
        <ele>500</ele>
        <time>2016-05-22T16:09:32Z</time>
      </trkpt>
      <trkpt lat="43.82253" lon="5.37991">
        <ele>498</ele>
        <time>2016-05-22T16:09:45Z</time>
      </trkpt>
      <trkpt lat="43.82243" lon="5.37981">
        <ele>497</ele>
        <time>2016-05-22T16:09:55Z</time>
      </trkpt>
      <trkpt lat="43.8224" lon="5.37956">
        <ele>496</ele>
        <time>2016-05-22T16:10:11Z</time>
      </trkpt>
      <trkpt lat="43.8224" lon="5.37941">
        <ele>495</ele>
        <time>2016-05-22T16:10:21Z</time>
      </trkpt>
      <trkpt lat="43.8224" lon="5.37924">
        <ele>494</ele>
        <time>2016-05-22T16:10:31Z</time>
      </trkpt>
      <trkpt lat="43.82241" lon="5.37912">
        <ele>494</ele>
        <time>2016-05-22T16:10:42Z</time>
      </trkpt>
      <trkpt lat="43.82242" lon="5.37902">
        <ele>493</ele>
        <time>2016-05-22T16:10:50Z</time>
      </trkpt>
      <trkpt lat="43.82243" lon="5.37895">
        <ele>493</ele>
        <time>2016-05-22T16:10:54Z</time>
      </trkpt>
      <trkpt lat="43.82251" lon="5.37874">
        <ele>493</ele>
        <time>2016-05-22T16:11:10Z</time>
      </trkpt>
      <trkpt lat="43.82259" lon="5.37855">
        <ele>493</ele>
        <time>2016-05-22T16:11:25Z</time>
      </trkpt>
      <trkpt lat="43.82264" lon="5.37837">
        <ele>490</ele>
        <time>2016-05-22T16:11:39Z</time>
      </trkpt>
      <trkpt lat="43.82274" lon="5.37817">
        <ele>490</ele>
        <time>2016-05-22T16:11:54Z</time>
      </trkpt>
      <trkpt lat="43.82279" lon="5.37809">
        <ele>490</ele>
        <time>2016-05-22T16:12:01Z</time>
      </trkpt>
      <trkpt lat="43.8229" lon="5.37793">
        <ele>488</ele>
        <time>2016-05-22T16:12:16Z</time>
      </trkpt>
      <trkpt lat="43.82295" lon="5.37786">
        <ele>488</ele>
        <time>2016-05-22T16:12:22Z</time>
      </trkpt>
      <trkpt lat="43.82297" lon="5.37783">
        <ele>487</ele>
        <time>2016-05-22T16:12:25Z</time>
      </trkpt>
      <trkpt lat="43.82311" lon="5.37768">
        <ele>486</ele>
        <time>2016-05-22T16:12:41Z</time>
      </trkpt>
      <trkpt lat="43.82326" lon="5.37747">
        <ele>483</ele>
        <time>2016-05-22T16:12:59Z</time>
      </trkpt>
      <trkpt lat="43.82328" lon="5.3774">
        <ele>482</ele>
        <time>2016-05-22T16:13:03Z</time>
      </trkpt>
      <trkpt lat="43.82338" lon="5.37727">
        <ele>481</ele>
        <time>2016-05-22T16:13:16Z</time>
      </trkpt>
      <trkpt lat="43.8234" lon="5.37725">
        <ele>481</ele>
        <time>2016-05-22T16:13:18Z</time>
      </trkpt>
      <trkpt lat="43.82363" lon="5.3771">
        <ele>480</ele>
        <time>2016-05-22T16:13:39Z</time>
      </trkpt>
      <trkpt lat="43.82381" lon="5.37702">
        <ele>480</ele>
        <time>2016-05-22T16:13:56Z</time>
      </trkpt>
      <trkpt lat="43.82398" lon="5.37698">
        <ele>481</ele>
        <time>2016-05-22T16:14:10Z</time>
      </trkpt>
      <trkpt lat="43.82413" lon="5.37695">
        <ele>483</ele>
        <time>2016-05-22T16:14:24Z</time>
      </trkpt>
      <trkpt lat="43.82432" lon="5.37695">
        <ele>482</ele>
        <time>2016-05-22T16:14:41Z</time>
      </trkpt>
      <trkpt lat="43.82451" lon="5.377">
        <ele>481</ele>
        <time>2016-05-22T16:14:57Z</time>
      </trkpt>
      <trkpt lat="43.82464" lon="5.37702">
        <ele>481</ele>
        <time>2016-05-22T16:15:10Z</time>
      </trkpt>
      <trkpt lat="43.82482" lon="5.37709">
        <ele>480</ele>
        <time>2016-05-22T16:15:27Z</time>
      </trkpt>
      <trkpt lat="43.82499" lon="5.37719">
        <ele>479</ele>
        <time>2016-05-22T16:15:43Z</time>
      </trkpt>
      <trkpt lat="43.82514" lon="5.37724">
        <ele>478</ele>
        <time>2016-05-22T16:15:57Z</time>
      </trkpt>
      <trkpt lat="43.82531" lon="5.37731">
        <ele>478</ele>
        <time>2016-05-22T16:16:13Z</time>
      </trkpt>
      <trkpt lat="43.82551" lon="5.3774">
        <ele>477</ele>
        <time>2016-05-22T16:16:31Z</time>
      </trkpt>
      <trkpt lat="43.82567" lon="5.37747">
        <ele>475</ele>
        <time>2016-05-22T16:16:46Z</time>
      </trkpt>
      <trkpt lat="43.82585" lon="5.37764">
        <ele>474</ele>
        <time>2016-05-22T16:17:04Z</time>
      </trkpt>
      <trkpt lat="43.82598" lon="5.3778">
        <ele>474</ele>
        <time>2016-05-22T16:17:20Z</time>
      </trkpt>
      <trkpt lat="43.82611" lon="5.37798">
        <ele>473</ele>
        <time>2016-05-22T16:17:36Z</time>
      </trkpt>
      <trkpt lat="43.82612" lon="5.37799">
        <ele>473</ele>
        <time>2016-05-22T16:17:37Z</time>
      </trkpt>
      <trkpt lat="43.82613" lon="5.37801">
        <ele>473</ele>
        <time>2016-05-22T16:17:39Z</time>
      </trkpt>
      <trkpt lat="43.82622" lon="5.37818">
        <ele>473</ele>
        <time>2016-05-22T16:17:53Z</time>
      </trkpt>
      <trkpt lat="43.82634" lon="5.3783">
        <ele>473</ele>
        <time>2016-05-22T16:18:09Z</time>
      </trkpt>
      <trkpt lat="43.82648" lon="5.37845">
        <ele>474</ele>
        <time>2016-05-22T16:18:25Z</time>
      </trkpt>
      <trkpt lat="43.8266" lon="5.37855">
        <ele>474</ele>
        <time>2016-05-22T16:18:40Z</time>
      </trkpt>
      <trkpt lat="43.82669" lon="5.37857">
        <ele>474</ele>
        <time>2016-05-22T16:18:50Z</time>
      </trkpt>
      <trkpt lat="43.82687" lon="5.37853">
        <ele>473</ele>
        <time>2016-05-22T16:19:08Z</time>
      </trkpt>
      <trkpt lat="43.82703" lon="5.37853">
        <ele>472</ele>
        <time>2016-05-22T16:19:24Z</time>
      </trkpt>
      <trkpt lat="43.82709" lon="5.37857">
        <ele>472</ele>
        <time>2016-05-22T16:19:30Z</time>
      </trkpt>
      <trkpt lat="43.82724" lon="5.37868">
        <ele>473</ele>
        <time>2016-05-22T16:19:46Z</time>
      </trkpt>
      <trkpt lat="43.82737" lon="5.37884">
        <ele>473</ele>
        <time>2016-05-22T16:20:01Z</time>
      </trkpt>
      <trkpt lat="43.8275" lon="5.37903">
        <ele>473</ele>
        <time>2016-05-22T16:20:18Z</time>
      </trkpt>
      <trkpt lat="43.82754" lon="5.37914">
        <ele>474</ele>
        <time>2016-05-22T16:20:33Z</time>
      </trkpt>
      <trkpt lat="43.82759" lon="5.37922">
        <ele>474</ele>
        <time>2016-05-22T16:20:46Z</time>
      </trkpt>
      <trkpt lat="43.82766" lon="5.37922">
        <ele>473</ele>
        <time>2016-05-22T16:21:00Z</time>
      </trkpt>
      <trkpt lat="43.82782" lon="5.37917">
        <ele>471</ele>
        <time>2016-05-22T16:21:19Z</time>
      </trkpt>
      <trkpt lat="43.82796" lon="5.37913">
        <ele>469</ele>
        <time>2016-05-22T16:21:36Z</time>
      </trkpt>
      <trkpt lat="43.82814" lon="5.37919">
        <ele>467</ele>
        <time>2016-05-22T16:21:52Z</time>
      </trkpt>
      <trkpt lat="43.82829" lon="5.37923">
        <ele>467</ele>
        <time>2016-05-22T16:22:07Z</time>
      </trkpt>
      <trkpt lat="43.82837" lon="5.37919">
        <ele>466</ele>
        <time>2016-05-22T16:22:15Z</time>
      </trkpt>
      <trkpt lat="43.82849" lon="5.37914">
        <ele>465</ele>
        <time>2016-05-22T16:22:27Z</time>
      </trkpt>
      <trkpt lat="43.82862" lon="5.37897">
        <ele>463</ele>
        <time>2016-05-22T16:22:44Z</time>
      </trkpt>
      <trkpt lat="43.82862" lon="5.37896">
        <ele>463</ele>
        <time>2016-05-22T16:22:45Z</time>
      </trkpt>
      <trkpt lat="43.82875" lon="5.37879">
        <ele>460</ele>
        <time>2016-05-22T16:23:02Z</time>
      </trkpt>
      <trkpt lat="43.82888" lon="5.37863">
        <ele>458</ele>
        <time>2016-05-22T16:23:18Z</time>
      </trkpt>
      <trkpt lat="43.82903" lon="5.37846">
        <ele>455</ele>
        <time>2016-05-22T16:23:37Z</time>
      </trkpt>
      <trkpt lat="43.82916" lon="5.37841">
        <ele>454</ele>
        <time>2016-05-22T16:23:50Z</time>
      </trkpt>
      <trkpt lat="43.8293" lon="5.37834">
        <ele>452</ele>
        <time>2016-05-22T16:24:06Z</time>
      </trkpt>
      <trkpt lat="43.82947" lon="5.37826">
        <ele>451</ele>
        <time>2016-05-22T16:24:21Z</time>
      </trkpt>
      <trkpt lat="43.82962" lon="5.37816">
        <ele>452</ele>
        <time>2016-05-22T16:24:40Z</time>
      </trkpt>
      <trkpt lat="43.82963" lon="5.37814">
        <ele>453</ele>
        <time>2016-05-22T16:24:48Z</time>
      </trkpt>
      <trkpt lat="43.82964" lon="5.37812">
        <ele>453</ele>
        <time>2016-05-22T16:25:03Z</time>
      </trkpt>
      <trkpt lat="43.82964" lon="5.37813">
        <ele>453</ele>
        <time>2016-05-22T16:25:14Z</time>
      </trkpt>
      <trkpt lat="43.82966" lon="5.37817">
        <ele>453</ele>
        <time>2016-05-22T16:25:22Z</time>
      </trkpt>
      <trkpt lat="43.82967" lon="5.37813">
        <ele>453</ele>
        <time>2016-05-22T16:25:34Z</time>
      </trkpt>
      <trkpt lat="43.82967" lon="5.37818">
        <ele>453</ele>
        <time>2016-05-22T16:25:36Z</time>
      </trkpt>
      <trkpt lat="43.82965" lon="5.3782">
        <ele>452</ele>
        <time>2016-05-22T16:25:44Z</time>
      </trkpt>
      <trkpt lat="43.82965" lon="5.37819">
        <ele>452</ele>
        <time>2016-05-22T16:25:45Z</time>
      </trkpt>
      <trkpt lat="43.82966" lon="5.37813">
        <ele>453</ele>
        <time>2016-05-22T16:25:56Z</time>
      </trkpt>
      <trkpt lat="43.82967" lon="5.37816">
        <ele>453</ele>
        <time>2016-05-22T16:26:12Z</time>
      </trkpt>
      <trkpt lat="43.82967" lon="5.37816">
        <ele>453</ele>
        <time>2016-05-22T16:26:31Z</time>
      </trkpt>
      <trkpt lat="43.82967" lon="5.37817">
        <ele>453</ele>
        <time>2016-05-22T16:26:59Z</time>
      </trkpt>
      <trkpt lat="43.82967" lon="5.37813">
        <ele>453</ele>
        <time>2016-05-22T16:27:14Z</time>
      </trkpt>
      <trkpt lat="43.82971" lon="5.37802">
        <ele>454</ele>
        <time>2016-05-22T16:27:26Z</time>
      </trkpt>
      <trkpt lat="43.82973" lon="5.37799">
        <ele>455</ele>
        <time>2016-05-22T16:27:32Z</time>
      </trkpt>
      <trkpt lat="43.82975" lon="5.37795">
        <ele>455</ele>
        <time>2016-05-22T16:27:39Z</time>
      </trkpt>
      <trkpt lat="43.82978" lon="5.37792">
        <ele>456</ele>
        <time>2016-05-22T16:27:44Z</time>
      </trkpt>
      <trkpt lat="43.82986" lon="5.37778">
        <ele>458</ele>
        <time>2016-05-22T16:28:01Z</time>
      </trkpt>
      <trkpt lat="43.82993" lon="5.37764">
        <ele>461</ele>
        <time>2016-05-22T16:28:15Z</time>
      </trkpt>
      <trkpt lat="43.83002" lon="5.37753">
        <ele>465</ele>
        <time>2016-05-22T16:28:31Z</time>
      </trkpt>
      <trkpt lat="43.83011" lon="5.37747">
        <ele>467</ele>
        <time>2016-05-22T16:28:45Z</time>
      </trkpt>
      <trkpt lat="43.83023" lon="5.37743">
        <ele>469</ele>
        <time>2016-05-22T16:28:59Z</time>
      </trkpt>
      <trkpt lat="43.83027" lon="5.37744">
        <ele>469</ele>
        <time>2016-05-22T16:29:04Z</time>
      </trkpt>
      <trkpt lat="43.83047" lon="5.3775">
        <ele>470</ele>
        <time>2016-05-22T16:29:21Z</time>
      </trkpt>
      <trkpt lat="43.83063" lon="5.37757">
        <ele>470</ele>
        <time>2016-05-22T16:29:36Z</time>
      </trkpt>
      <trkpt lat="43.83078" lon="5.37759">
        <ele>472</ele>
        <time>2016-05-22T16:29:52Z</time>
      </trkpt>
      <trkpt lat="43.83092" lon="5.37763">
        <ele>472</ele>
        <time>2016-05-22T16:30:06Z</time>
      </trkpt>
      <trkpt lat="43.83107" lon="5.37769">
        <ele>473</ele>
        <time>2016-05-22T16:30:22Z</time>
      </trkpt>
      <trkpt lat="43.83122" lon="5.37779">
        <ele>473</ele>
        <time>2016-05-22T16:30:40Z</time>
      </trkpt>
      <trkpt lat="43.8313" lon="5.37787">
        <ele>474</ele>
        <time>2016-05-22T16:30:54Z</time>
      </trkpt>
      <trkpt lat="43.8314" lon="5.37789">
        <ele>475</ele>
        <time>2016-05-22T16:31:09Z</time>
      </trkpt>
      <trkpt lat="43.83148" lon="5.37791">
        <ele>476</ele>
        <time>2016-05-22T16:31:24Z</time>
      </trkpt>
      <trkpt lat="43.83159" lon="5.37783">
        <ele>477</ele>
        <time>2016-05-22T16:31:37Z</time>
      </trkpt>
      <trkpt lat="43.83172" lon="5.37774">
        <ele>480</ele>
        <time>2016-05-22T16:31:54Z</time>
      </trkpt>
      <trkpt lat="43.83181" lon="5.37765">
        <ele>482</ele>
        <time>2016-05-22T16:32:08Z</time>
      </trkpt>
      <trkpt lat="43.83186" lon="5.37756">
        <ele>484</ele>
        <time>2016-05-22T16:32:21Z</time>
      </trkpt>
      <trkpt lat="43.83184" lon="5.37748">
        <ele>484</ele>
        <time>2016-05-22T16:32:31Z</time>
      </trkpt>
      <trkpt lat="43.83177" lon="5.37742">
        <ele>484</ele>
        <time>2016-05-22T16:32:46Z</time>
      </trkpt>
      <trkpt lat="43.83168" lon="5.37741">
        <ele>483</ele>
        <time>2016-05-22T16:32:59Z</time>
      </trkpt>
      <trkpt lat="43.83164" lon="5.37738">
        <ele>483</ele>
        <time>2016-05-22T16:33:06Z</time>
      </trkpt>
      <trkpt lat="43.83155" lon="5.37734">
        <ele>483</ele>
        <time>2016-05-22T16:33:17Z</time>
      </trkpt>
      <trkpt lat="43.83142" lon="5.37729">
        <ele>482</ele>
        <time>2016-05-22T16:33:36Z</time>
      </trkpt>
      <trkpt lat="43.8314" lon="5.37726">
        <ele>483</ele>
        <time>2016-05-22T16:33:57Z</time>
      </trkpt>
      <trkpt lat="43.83131" lon="5.37719">
        <ele>483</ele>
        <time>2016-05-22T16:34:09Z</time>
      </trkpt>
      <trkpt lat="43.83118" lon="5.3771">
        <ele>484</ele>
        <time>2016-05-22T16:34:25Z</time>
      </trkpt>
      <trkpt lat="43.83115" lon="5.37708">
        <ele>484</ele>
        <time>2016-05-22T16:34:28Z</time>
      </trkpt>
      <trkpt lat="43.83099" lon="5.37702">
        <ele>484</ele>
        <time>2016-05-22T16:34:45Z</time>
      </trkpt>
      <trkpt lat="43.83087" lon="5.37692">
        <ele>485</ele>
        <time>2016-05-22T16:35:00Z</time>
      </trkpt>
      <trkpt lat="43.83079" lon="5.37682">
        <ele>487</ele>
        <time>2016-05-22T16:35:13Z</time>
      </trkpt>
      <trkpt lat="43.83075" lon="5.37678">
        <ele>487</ele>
        <time>2016-05-22T16:35:19Z</time>
      </trkpt>
      <trkpt lat="43.83064" lon="5.37662">
        <ele>490</ele>
        <time>2016-05-22T16:35:37Z</time>
      </trkpt>
      <trkpt lat="43.83056" lon="5.3765">
        <ele>492</ele>
        <time>2016-05-22T16:35:51Z</time>
      </trkpt>
      <trkpt lat="43.83046" lon="5.37639">
        <ele>493</ele>
        <time>2016-05-22T16:36:07Z</time>
      </trkpt>
      <trkpt lat="43.83031" lon="5.37633">
        <ele>493</ele>
        <time>2016-05-22T16:36:23Z</time>
      </trkpt>
      <trkpt lat="43.83075" lon="5.37631">
        <ele>499</ele>
        <time>2016-05-22T16:36:37Z</time>
      </trkpt>
      <trkpt lat="43.83103" lon="5.37629">
        <ele>502</ele>
        <time>2016-05-22T16:36:46Z</time>
      </trkpt>
      <trkpt lat="43.83117" lon="5.37628">
        <ele>504</ele>
        <time>2016-05-22T16:37:01Z</time>
      </trkpt>
      <trkpt lat="43.83142" lon="5.37622">
        <ele>507</ele>
        <time>2016-05-22T16:37:14Z</time>
      </trkpt>
      <trkpt lat="43.83175" lon="5.37613">
        <ele>511</ele>
        <time>2016-05-22T16:37:28Z</time>
      </trkpt>
      <trkpt lat="43.83174" lon="5.37579">
        <ele>516</ele>
        <time>2016-05-22T16:37:43Z</time>
      </trkpt>
      <trkpt lat="43.83194" lon="5.3755">
        <ele>518</ele>
        <time>2016-05-22T16:37:59Z</time>
      </trkpt>
      <trkpt lat="43.83219" lon="5.37524">
        <ele>519</ele>
        <time>2016-05-22T16:38:14Z</time>
      </trkpt>
      <trkpt lat="43.83242" lon="5.37495">
        <ele>518</ele>
        <time>2016-05-22T16:38:29Z</time>
      </trkpt>
      <trkpt lat="43.83256" lon="5.37476">
        <ele>517</ele>
        <time>2016-05-22T16:38:44Z</time>
      </trkpt>
      <trkpt lat="43.83266" lon="5.37467">
        <ele>517</ele>
        <time>2016-05-22T16:39:01Z</time>
      </trkpt>
      <trkpt lat="43.83269" lon="5.37453">
        <ele>516</ele>
        <time>2016-05-22T16:39:15Z</time>
      </trkpt>
      <trkpt lat="43.83286" lon="5.37436">
        <ele>514</ele>
        <time>2016-05-22T16:39:29Z</time>
      </trkpt>
      <trkpt lat="43.83326" lon="5.37382">
        <ele>504</ele>
        <time>2016-05-22T16:39:45Z</time>
      </trkpt>
      <trkpt lat="43.83339" lon="5.37337">
        <ele>498</ele>
        <time>2016-05-22T16:39:55Z</time>
      </trkpt>
      <trkpt lat="43.83366" lon="5.3728">
        <ele>490</ele>
        <time>2016-05-22T16:40:09Z</time>
      </trkpt>
      <trkpt lat="43.83381" lon="5.3725">
        <ele>486</ele>
        <time>2016-05-22T16:40:26Z</time>
      </trkpt>
      <trkpt lat="43.83387" lon="5.37215">
        <ele>483</ele>
        <time>2016-05-22T16:40:40Z</time>
      </trkpt>
      <trkpt lat="43.83399" lon="5.37184">
        <ele>478</ele>
        <time>2016-05-22T16:40:53Z</time>
      </trkpt>
      <trkpt lat="43.83437" lon="5.37078">
        <ele>460</ele>
        <time>2016-05-22T16:41:11Z</time>
      </trkpt>
      <trkpt lat="43.83465" lon="5.37073">
        <ele>456</ele>
        <time>2016-05-22T16:41:28Z</time>
      </trkpt>
      <trkpt lat="43.8348" lon="5.3705">
        <ele>451</ele>
        <time>2016-05-22T16:41:44Z</time>
      </trkpt>
      <trkpt lat="43.83527" lon="5.37107">
        <ele>448</ele>
        <time>2016-05-22T16:41:58Z</time>
      </trkpt>
      <trkpt lat="43.83519" lon="5.37137">
        <ele>452</ele>
        <time>2016-05-22T16:42:14Z</time>
      </trkpt>
      <trkpt lat="43.83545" lon="5.37169">
        <ele>453</ele>
        <time>2016-05-22T16:42:42Z</time>
      </trkpt>
    </trkseg>
  </trk>
</gpx>